<?xml version="1.0" encoding="UTF-8" standalone="no"?>
<gpx xmlns="http://www.topografix.com/GPX/1/1" creator="GPS-Track-Analyse.NET 4.x" version="1.1" xmlns:xsi="http://www.w3.org/2001/XMLSchema-instance" xsi:schemaLocation="http://www.topografix.com/GPX/1/1 http://www.topografix.com/GPX/1/1/gpx.xsd">
<metadata>
<link href="http://www.gps-freeware.de">
<text>Download GPS-Track-Analyse</text>
</link>
<time>2009-06-24T11:12:10Z</time>
<bounds maxlat="28.114848" maxlon="-17.306222" minlat="28.103643" minlon="-17.326078" />
</metadata>
<wpt lat="28.107059" lon="-17.325262">
<ele>175.577900</ele>
<time>2009-06-12T10:10:06Z</time>
<name>015</name>
<cmt>12-JUN-09 5:01:37</cmt>
<sym>Flag, Blue</sym>
</wpt>
<wpt lat="28.106353" lon="-17.324632">
<ele>169.329500</ele>
<time>2009-06-12T10:24:23Z</time>
<name>016</name>
<cmt>12-JUN-09 5:37:34</cmt>
<sym>Flag, Blue</sym>
</wpt>
<wpt lat="28.104442" lon="-17.313904">
<ele>647.585200</ele>
<time>2009-06-12T12:54:56Z</time>
<name>017</name>
<cmt>12-JUN-09 8:02:00</cmt>
<sym>Flag, Blue</sym>
</wpt>
<wpt lat="28.104621" lon="-17.312250">
<ele>680.270000</ele>
<time>2009-06-12T13:21:59Z</time>
<name>018</name>
<cmt>12-JUN-09 8:31:05</cmt>
<sym>Flag, Blue</sym>
</wpt>
<wpt lat="28.109709" lon="-17.307889">
<ele>682.673300</ele>
<time>2009-06-12T14:02:13Z</time>
<name>019</name>
<cmt>12-JUN-09 9:14:54</cmt>
<sym>Flag, Blue</sym>
</wpt>
<wpt lat="28.113982" lon="-17.307628">
<ele>417.349600</ele>
<time>2009-06-12T16:22:07Z</time>
<name>020</name>
<cmt>12-JUN-09 11:28:11</cmt>
<sym>Flag, Blue</sym>
</wpt>
<wpt lat="28.113610" lon="-17.310952">
<ele>385.626000</ele>
<time>2009-06-12T16:45:16Z</time>
<name>021</name>
<cmt>12-JUN-09 11:48:40</cmt>
<sym>Flag, Blue</sym>
</wpt>
<trk>
<name>ACTIVE LOG</name>
<trkseg>
<trkpt lat="28.107059" lon="-17.325262">
<ele>175.577900</ele>
<time>2009-06-12T10:10:06Z</time>
</trkpt>
<trkpt lat="28.107059" lon="-17.325262">
<ele>175.577900</ele>
<time>2009-06-12T10:10:07Z</time>
</trkpt>
<trkpt lat="28.107059" lon="-17.325262">
<ele>175.097300</ele>
<time>2009-06-12T10:10:08Z</time>
</trkpt>
<trkpt lat="28.107072" lon="-17.325252">
<ele>175.097300</ele>
<time>2009-06-12T10:10:17Z</time>
</trkpt>
<trkpt lat="28.107132" lon="-17.325141">
<ele>175.577900</ele>
<time>2009-06-12T10:10:35Z</time>
</trkpt>
<trkpt lat="28.107001" lon="-17.325007">
<ele>172.213300</ele>
<time>2009-06-12T10:11:05Z</time>
</trkpt>
<trkpt lat="28.107005" lon="-17.324912">
<ele>170.290600</ele>
<time>2009-06-12T10:11:51Z</time>
</trkpt>
<trkpt lat="28.106975" lon="-17.324880">
<ele>172.213300</ele>
<time>2009-06-12T10:13:50Z</time>
</trkpt>
<trkpt lat="28.107069" lon="-17.324966">
<ele>171.732700</ele>
<time>2009-06-12T10:14:13Z</time>
</trkpt>
<trkpt lat="28.107101" lon="-17.325028">
<ele>174.616600</ele>
<time>2009-06-12T10:14:32Z</time>
</trkpt>
<trkpt lat="28.107122" lon="-17.325115">
<ele>177.500600</ele>
<time>2009-06-12T10:15:14Z</time>
</trkpt>
<trkpt lat="28.107007" lon="-17.325453">
<ele>175.577900</ele>
<time>2009-06-12T10:15:55Z</time>
</trkpt>
<trkpt lat="28.106958" lon="-17.325476">
<ele>172.694000</ele>
<time>2009-06-12T10:16:19Z</time>
</trkpt>
<trkpt lat="28.106855" lon="-17.325410">
<ele>168.848800</ele>
<time>2009-06-12T10:16:48Z</time>
</trkpt>
<trkpt lat="28.106696" lon="-17.325557">
<ele>169.329500</ele>
<time>2009-06-12T10:16:52Z</time>
</trkpt>
<trkpt lat="28.106392" lon="-17.325834">
<ele>166.926000</ele>
<time>2009-06-12T10:17:03Z</time>
</trkpt>
<trkpt lat="28.106188" lon="-17.325992">
<ele>165.964700</ele>
<time>2009-06-12T10:17:15Z</time>
</trkpt>
<trkpt lat="28.106030" lon="-17.326027">
<ele>164.522700</ele>
<time>2009-06-12T10:17:35Z</time>
</trkpt>
<trkpt lat="28.105914" lon="-17.326004">
<ele>164.042100</ele>
<time>2009-06-12T10:17:55Z</time>
</trkpt>
<trkpt lat="28.105809" lon="-17.326078">
<ele>163.561500</ele>
<time>2009-06-12T10:18:27Z</time>
</trkpt>
<trkpt lat="28.105822" lon="-17.326052">
<ele>160.677500</ele>
<time>2009-06-12T10:18:47Z</time>
</trkpt>
<trkpt lat="28.105843" lon="-17.325812">
<ele>158.754800</ele>
<time>2009-06-12T10:19:08Z</time>
</trkpt>
<trkpt lat="28.105853" lon="-17.325788">
<ele>159.235500</ele>
<time>2009-06-12T10:19:10Z</time>
</trkpt>
<trkpt lat="28.105975" lon="-17.325700">
<ele>158.274200</ele>
<time>2009-06-12T10:19:29Z</time>
</trkpt>
<trkpt lat="28.105978" lon="-17.325524">
<ele>160.677500</ele>
<time>2009-06-12T10:19:53Z</time>
</trkpt>
<trkpt lat="28.106075" lon="-17.325350">
<ele>162.600100</ele>
<time>2009-06-12T10:20:16Z</time>
</trkpt>
<trkpt lat="28.106169" lon="-17.325161">
<ele>164.042100</ele>
<time>2009-06-12T10:20:38Z</time>
</trkpt>
<trkpt lat="28.106249" lon="-17.325051">
<ele>165.964700</ele>
<time>2009-06-12T10:20:57Z</time>
</trkpt>
<trkpt lat="28.106259" lon="-17.324977">
<ele>166.445300</ele>
<time>2009-06-12T10:21:11Z</time>
</trkpt>
<trkpt lat="28.106236" lon="-17.324816">
<ele>167.887300</ele>
<time>2009-06-12T10:21:33Z</time>
</trkpt>
<trkpt lat="28.106212" lon="-17.324753">
<ele>168.368000</ele>
<time>2009-06-12T10:22:06Z</time>
</trkpt>
<trkpt lat="28.106327" lon="-17.324676">
<ele>169.329500</ele>
<time>2009-06-12T10:24:05Z</time>
</trkpt>
<trkpt lat="28.106353" lon="-17.324632">
<ele>169.329500</ele>
<time>2009-06-12T10:24:23Z</time>
</trkpt>
<trkpt lat="28.106441" lon="-17.324590">
<ele>170.290600</ele>
<time>2009-06-12T10:24:41Z</time>
</trkpt>
<trkpt lat="28.106505" lon="-17.324468">
<ele>170.771400</ele>
<time>2009-06-12T10:24:53Z</time>
</trkpt>
<trkpt lat="28.106526" lon="-17.324232">
<ele>171.732700</ele>
<time>2009-06-12T10:25:10Z</time>
</trkpt>
<trkpt lat="28.106551" lon="-17.324037">
<ele>173.174700</ele>
<time>2009-06-12T10:25:27Z</time>
</trkpt>
<trkpt lat="28.106612" lon="-17.323910">
<ele>174.135900</ele>
<time>2009-06-12T10:25:40Z</time>
</trkpt>
<trkpt lat="28.106626" lon="-17.323863">
<ele>174.616600</ele>
<time>2009-06-12T10:25:44Z</time>
</trkpt>
<trkpt lat="28.106673" lon="-17.323821">
<ele>175.097300</ele>
<time>2009-06-12T10:25:50Z</time>
</trkpt>
<trkpt lat="28.106741" lon="-17.323749">
<ele>175.577900</ele>
<time>2009-06-12T10:26:06Z</time>
</trkpt>
<trkpt lat="28.106851" lon="-17.323745">
<ele>177.020000</ele>
<time>2009-06-12T10:26:18Z</time>
</trkpt>
<trkpt lat="28.106989" lon="-17.323652">
<ele>179.423200</ele>
<time>2009-06-12T10:26:36Z</time>
</trkpt>
<trkpt lat="28.107024" lon="-17.323415">
<ele>179.903800</ele>
<time>2009-06-12T10:27:01Z</time>
</trkpt>
<trkpt lat="28.106968" lon="-17.323199">
<ele>180.865200</ele>
<time>2009-06-12T10:27:15Z</time>
</trkpt>
<trkpt lat="28.106971" lon="-17.323193">
<ele>180.384500</ele>
<time>2009-06-12T10:27:30Z</time>
</trkpt>
<trkpt lat="28.107113" lon="-17.322983">
<ele>181.826400</ele>
<time>2009-06-12T10:29:09Z</time>
</trkpt>
<trkpt lat="28.107193" lon="-17.322918">
<ele>183.749000</ele>
<time>2009-06-12T10:29:31Z</time>
</trkpt>
<trkpt lat="28.107058" lon="-17.322978">
<ele>181.345800</ele>
<time>2009-06-12T10:30:10Z</time>
</trkpt>
<trkpt lat="28.106950" lon="-17.323112">
<ele>181.345800</ele>
<time>2009-06-12T10:30:40Z</time>
</trkpt>
<trkpt lat="28.106921" lon="-17.323208">
<ele>180.865200</ele>
<time>2009-06-12T10:30:49Z</time>
</trkpt>
<trkpt lat="28.106860" lon="-17.323288">
<ele>180.384500</ele>
<time>2009-06-12T10:31:04Z</time>
</trkpt>
<trkpt lat="28.106704" lon="-17.323236">
<ele>182.787800</ele>
<time>2009-06-12T10:31:27Z</time>
</trkpt>
<trkpt lat="28.106613" lon="-17.323110">
<ele>185.671800</ele>
<time>2009-06-12T10:31:43Z</time>
</trkpt>
<trkpt lat="28.106655" lon="-17.323217">
<ele>188.555800</ele>
<time>2009-06-12T10:32:06Z</time>
</trkpt>
<trkpt lat="28.106623" lon="-17.323335">
<ele>190.959000</ele>
<time>2009-06-12T10:32:24Z</time>
</trkpt>
<trkpt lat="28.106613" lon="-17.323309">
<ele>194.323700</ele>
<time>2009-06-12T10:32:45Z</time>
</trkpt>
<trkpt lat="28.106606" lon="-17.323292">
<ele>197.207500</ele>
<time>2009-06-12T10:33:05Z</time>
</trkpt>
<trkpt lat="28.106549" lon="-17.323397">
<ele>199.130100</ele>
<time>2009-06-12T10:33:26Z</time>
</trkpt>
<trkpt lat="28.106501" lon="-17.323419">
<ele>200.091700</ele>
<time>2009-06-12T10:33:45Z</time>
</trkpt>
<trkpt lat="28.106336" lon="-17.323593">
<ele>199.130100</ele>
<time>2009-06-12T10:34:28Z</time>
</trkpt>
<trkpt lat="28.106295" lon="-17.323635">
<ele>199.130100</ele>
<time>2009-06-12T10:34:42Z</time>
</trkpt>
<trkpt lat="28.106271" lon="-17.323702">
<ele>198.649500</ele>
<time>2009-06-12T10:34:51Z</time>
</trkpt>
<trkpt lat="28.106265" lon="-17.323742">
<ele>199.130100</ele>
<time>2009-06-12T10:34:54Z</time>
</trkpt>
<trkpt lat="28.106301" lon="-17.323779">
<ele>199.130100</ele>
<time>2009-06-12T10:35:13Z</time>
</trkpt>
<trkpt lat="28.106236" lon="-17.323808">
<ele>199.130100</ele>
<time>2009-06-12T10:35:33Z</time>
</trkpt>
<trkpt lat="28.106181" lon="-17.323864">
<ele>199.130100</ele>
<time>2009-06-12T10:35:47Z</time>
</trkpt>
<trkpt lat="28.106072" lon="-17.323925">
<ele>198.168900</ele>
<time>2009-06-12T10:36:29Z</time>
</trkpt>
<trkpt lat="28.106171" lon="-17.323882">
<ele>198.649500</ele>
<time>2009-06-12T10:36:55Z</time>
</trkpt>
<trkpt lat="28.106181" lon="-17.323878">
<ele>198.649500</ele>
<time>2009-06-12T10:36:56Z</time>
</trkpt>
<trkpt lat="28.106204" lon="-17.323823">
<ele>198.649500</ele>
<time>2009-06-12T10:37:08Z</time>
</trkpt>
<trkpt lat="28.106282" lon="-17.323617">
<ele>199.130100</ele>
<time>2009-06-12T10:37:28Z</time>
</trkpt>
<trkpt lat="28.106317" lon="-17.323477">
<ele>199.610800</ele>
<time>2009-06-12T10:38:00Z</time>
</trkpt>
<trkpt lat="28.106417" lon="-17.323416">
<ele>199.130100</ele>
<time>2009-06-12T10:38:16Z</time>
</trkpt>
<trkpt lat="28.106430" lon="-17.323300">
<ele>202.014300</ele>
<time>2009-06-12T10:38:35Z</time>
</trkpt>
<trkpt lat="28.106358" lon="-17.323202">
<ele>204.898100</ele>
<time>2009-06-12T10:38:59Z</time>
</trkpt>
<trkpt lat="28.106257" lon="-17.323081">
<ele>204.898100</ele>
<time>2009-06-12T10:39:40Z</time>
</trkpt>
<trkpt lat="28.106053" lon="-17.322682">
<ele>203.936900</ele>
<time>2009-06-12T10:40:12Z</time>
</trkpt>
<trkpt lat="28.106305" lon="-17.322789">
<ele>206.820700</ele>
<time>2009-06-12T10:40:43Z</time>
</trkpt>
<trkpt lat="28.106574" lon="-17.322811">
<ele>208.743400</ele>
<time>2009-06-12T10:41:09Z</time>
</trkpt>
<trkpt lat="28.106625" lon="-17.322722">
<ele>209.224100</ele>
<time>2009-06-12T10:41:22Z</time>
</trkpt>
<trkpt lat="28.106729" lon="-17.322666">
<ele>209.704800</ele>
<time>2009-06-12T10:41:37Z</time>
</trkpt>
<trkpt lat="28.106747" lon="-17.322523">
<ele>210.185400</ele>
<time>2009-06-12T10:42:03Z</time>
</trkpt>
<trkpt lat="28.106920" lon="-17.322420">
<ele>209.704800</ele>
<time>2009-06-12T10:42:26Z</time>
</trkpt>
<trkpt lat="28.106964" lon="-17.322221">
<ele>210.185400</ele>
<time>2009-06-12T10:42:50Z</time>
</trkpt>
<trkpt lat="28.107040" lon="-17.322230">
<ele>209.704800</ele>
<time>2009-06-12T10:43:21Z</time>
</trkpt>
<trkpt lat="28.107167" lon="-17.322023">
<ele>206.340100</ele>
<time>2009-06-12T10:46:39Z</time>
</trkpt>
<trkpt lat="28.107444" lon="-17.321874">
<ele>207.782100</ele>
<time>2009-06-12T10:47:01Z</time>
</trkpt>
<trkpt lat="28.107550" lon="-17.321750">
<ele>208.743400</ele>
<time>2009-06-12T10:47:18Z</time>
</trkpt>
<trkpt lat="28.107575" lon="-17.321647">
<ele>208.262800</ele>
<time>2009-06-12T10:47:41Z</time>
</trkpt>
<trkpt lat="28.107620" lon="-17.321580">
<ele>208.262800</ele>
<time>2009-06-12T10:48:22Z</time>
</trkpt>
<trkpt lat="28.107585" lon="-17.321454">
<ele>209.704800</ele>
<time>2009-06-12T10:48:38Z</time>
</trkpt>
<trkpt lat="28.107640" lon="-17.321382">
<ele>212.108000</ele>
<time>2009-06-12T10:48:57Z</time>
</trkpt>
<trkpt lat="28.107660" lon="-17.321299">
<ele>214.991900</ele>
<time>2009-06-12T10:49:19Z</time>
</trkpt>
<trkpt lat="28.107690" lon="-17.321203">
<ele>216.434000</ele>
<time>2009-06-12T10:49:41Z</time>
</trkpt>
<trkpt lat="28.107701" lon="-17.321106">
<ele>217.395400</ele>
<time>2009-06-12T10:49:59Z</time>
</trkpt>
<trkpt lat="28.107749" lon="-17.320977">
<ele>219.798600</ele>
<time>2009-06-12T10:50:18Z</time>
</trkpt>
<trkpt lat="28.107774" lon="-17.320912">
<ele>222.682500</ele>
<time>2009-06-12T10:50:37Z</time>
</trkpt>
<trkpt lat="28.107790" lon="-17.320822">
<ele>225.085900</ele>
<time>2009-06-12T10:50:52Z</time>
</trkpt>
<trkpt lat="28.107755" lon="-17.320736">
<ele>227.969700</ele>
<time>2009-06-12T10:51:08Z</time>
</trkpt>
<trkpt lat="28.107712" lon="-17.320671">
<ele>230.373000</ele>
<time>2009-06-12T10:51:24Z</time>
</trkpt>
<trkpt lat="28.107739" lon="-17.320570">
<ele>232.295800</ele>
<time>2009-06-12T10:51:41Z</time>
</trkpt>
<trkpt lat="28.107772" lon="-17.320513">
<ele>232.295800</ele>
<time>2009-06-12T10:52:10Z</time>
</trkpt>
<trkpt lat="28.107773" lon="-17.320419">
<ele>232.776500</ele>
<time>2009-06-12T10:57:28Z</time>
</trkpt>
<trkpt lat="28.107723" lon="-17.320375">
<ele>236.141000</ele>
<time>2009-06-12T10:57:50Z</time>
</trkpt>
<trkpt lat="28.107629" lon="-17.320284">
<ele>239.505500</ele>
<time>2009-06-12T10:58:12Z</time>
</trkpt>
<trkpt lat="28.107518" lon="-17.320195">
<ele>242.389600</ele>
<time>2009-06-12T10:58:34Z</time>
</trkpt>
<trkpt lat="28.107463" lon="-17.320135">
<ele>245.273400</ele>
<time>2009-06-12T10:58:52Z</time>
</trkpt>
<trkpt lat="28.107398" lon="-17.320097">
<ele>248.638200</ele>
<time>2009-06-12T10:59:14Z</time>
</trkpt>
<trkpt lat="28.107389" lon="-17.319998">
<ele>252.002800</ele>
<time>2009-06-12T10:59:35Z</time>
</trkpt>
<trkpt lat="28.107321" lon="-17.319836">
<ele>254.406000</ele>
<time>2009-06-12T11:00:03Z</time>
</trkpt>
<trkpt lat="28.107272" lon="-17.319752">
<ele>255.848000</ele>
<time>2009-06-12T11:00:37Z</time>
</trkpt>
<trkpt lat="28.107307" lon="-17.319685">
<ele>259.212600</ele>
<time>2009-06-12T11:01:32Z</time>
</trkpt>
<trkpt lat="28.107323" lon="-17.319602">
<ele>260.654500</ele>
<time>2009-06-12T11:01:55Z</time>
</trkpt>
<trkpt lat="28.107474" lon="-17.319553">
<ele>264.019300</ele>
<time>2009-06-12T11:02:21Z</time>
</trkpt>
<trkpt lat="28.107462" lon="-17.319461">
<ele>266.903200</ele>
<time>2009-06-12T11:02:45Z</time>
</trkpt>
<trkpt lat="28.107495" lon="-17.319362">
<ele>269.787100</ele>
<time>2009-06-12T11:03:16Z</time>
</trkpt>
<trkpt lat="28.107464" lon="-17.319266">
<ele>272.671100</ele>
<time>2009-06-12T11:04:04Z</time>
</trkpt>
<trkpt lat="28.107466" lon="-17.319242">
<ele>273.632400</ele>
<time>2009-06-12T11:04:22Z</time>
</trkpt>
<trkpt lat="28.107512" lon="-17.319144">
<ele>276.997100</ele>
<time>2009-06-12T11:05:07Z</time>
</trkpt>
<trkpt lat="28.107526" lon="-17.319127">
<ele>278.919700</ele>
<time>2009-06-12T11:05:27Z</time>
</trkpt>
<trkpt lat="28.107578" lon="-17.319021">
<ele>281.803600</ele>
<time>2009-06-12T11:05:49Z</time>
</trkpt>
<trkpt lat="28.107535" lon="-17.318998">
<ele>281.803600</ele>
<time>2009-06-12T11:11:23Z</time>
</trkpt>
<trkpt lat="28.107468" lon="-17.319010">
<ele>283.726200</ele>
<time>2009-06-12T11:11:40Z</time>
</trkpt>
<trkpt lat="28.107412" lon="-17.319062">
<ele>286.610200</ele>
<time>2009-06-12T11:12:12Z</time>
</trkpt>
<trkpt lat="28.107400" lon="-17.318926">
<ele>288.533000</ele>
<time>2009-06-12T11:12:32Z</time>
</trkpt>
<trkpt lat="28.107408" lon="-17.318893">
<ele>289.974900</ele>
<time>2009-06-12T11:12:53Z</time>
</trkpt>
<trkpt lat="28.107355" lon="-17.318865">
<ele>291.897500</ele>
<time>2009-06-12T11:13:21Z</time>
</trkpt>
<trkpt lat="28.107281" lon="-17.318786">
<ele>295.262000</ele>
<time>2009-06-12T11:13:48Z</time>
</trkpt>
<trkpt lat="28.107241" lon="-17.318700">
<ele>298.626700</ele>
<time>2009-06-12T11:14:16Z</time>
</trkpt>
<trkpt lat="28.107282" lon="-17.318657">
<ele>301.991300</ele>
<time>2009-06-12T11:14:50Z</time>
</trkpt>
<trkpt lat="28.107324" lon="-17.318654">
<ele>304.394700</ele>
<time>2009-06-12T11:15:25Z</time>
</trkpt>
<trkpt lat="28.107431" lon="-17.318538">
<ele>307.278600</ele>
<time>2009-06-12T11:15:49Z</time>
</trkpt>
<trkpt lat="28.107535" lon="-17.318452">
<ele>309.681900</ele>
<time>2009-06-12T11:16:06Z</time>
</trkpt>
<trkpt lat="28.107560" lon="-17.318422">
<ele>311.123800</ele>
<time>2009-06-12T11:16:31Z</time>
</trkpt>
<trkpt lat="28.107636" lon="-17.318422">
<ele>314.007800</ele>
<time>2009-06-12T11:16:53Z</time>
</trkpt>
<trkpt lat="28.107661" lon="-17.318373">
<ele>315.930400</ele>
<time>2009-06-12T11:17:09Z</time>
</trkpt>
<trkpt lat="28.107665" lon="-17.318378">
<ele>318.814300</ele>
<time>2009-06-12T11:17:29Z</time>
</trkpt>
<trkpt lat="28.107728" lon="-17.318283">
<ele>321.698400</ele>
<time>2009-06-12T11:18:00Z</time>
</trkpt>
<trkpt lat="28.107748" lon="-17.318306">
<ele>324.101600</ele>
<time>2009-06-12T11:18:17Z</time>
</trkpt>
<trkpt lat="28.107749" lon="-17.318260">
<ele>325.063000</ele>
<time>2009-06-12T11:18:39Z</time>
</trkpt>
<trkpt lat="28.107671" lon="-17.318195">
<ele>326.024200</ele>
<time>2009-06-12T11:19:15Z</time>
</trkpt>
<trkpt lat="28.107671" lon="-17.318159">
<ele>326.504900</ele>
<time>2009-06-12T11:20:23Z</time>
</trkpt>
<trkpt lat="28.107616" lon="-17.318079">
<ele>329.869500</ele>
<time>2009-06-12T11:22:27Z</time>
</trkpt>
<trkpt lat="28.107543" lon="-17.317989">
<ele>332.272800</ele>
<time>2009-06-12T11:22:55Z</time>
</trkpt>
<trkpt lat="28.107519" lon="-17.317873">
<ele>335.637300</ele>
<time>2009-06-12T11:23:16Z</time>
</trkpt>
<trkpt lat="28.107509" lon="-17.317721">
<ele>338.521500</ele>
<time>2009-06-12T11:23:54Z</time>
</trkpt>
<trkpt lat="28.107541" lon="-17.317538">
<ele>341.886000</ele>
<time>2009-06-12T11:24:21Z</time>
</trkpt>
<trkpt lat="28.107570" lon="-17.317533">
<ele>343.808600</ele>
<time>2009-06-12T11:24:43Z</time>
</trkpt>
<trkpt lat="28.107536" lon="-17.317496">
<ele>343.808600</ele>
<time>2009-06-12T11:25:26Z</time>
</trkpt>
<trkpt lat="28.107528" lon="-17.317501">
<ele>343.808600</ele>
<time>2009-06-12T11:25:27Z</time>
</trkpt>
<trkpt lat="28.107496" lon="-17.317506">
<ele>346.212000</ele>
<time>2009-06-12T11:25:42Z</time>
</trkpt>
<trkpt lat="28.107418" lon="-17.317498">
<ele>347.653900</ele>
<time>2009-06-12T11:26:02Z</time>
</trkpt>
<trkpt lat="28.107344" lon="-17.317550">
<ele>349.576500</ele>
<time>2009-06-12T11:26:17Z</time>
</trkpt>
<trkpt lat="28.107284" lon="-17.317705">
<ele>351.499100</ele>
<time>2009-06-12T11:26:34Z</time>
</trkpt>
<trkpt lat="28.107235" lon="-17.317736">
<ele>353.421900</ele>
<time>2009-06-12T11:26:51Z</time>
</trkpt>
<trkpt lat="28.107184" lon="-17.317712">
<ele>356.786400</ele>
<time>2009-06-12T11:27:26Z</time>
</trkpt>
<trkpt lat="28.107087" lon="-17.317631">
<ele>358.228400</ele>
<time>2009-06-12T11:27:45Z</time>
</trkpt>
<trkpt lat="28.107014" lon="-17.317668">
<ele>360.631700</ele>
<time>2009-06-12T11:28:06Z</time>
</trkpt>
<trkpt lat="28.107064" lon="-17.317598">
<ele>363.035000</ele>
<time>2009-06-12T11:28:27Z</time>
</trkpt>
<trkpt lat="28.107045" lon="-17.317533">
<ele>364.957600</ele>
<time>2009-06-12T11:28:42Z</time>
</trkpt>
<trkpt lat="28.107022" lon="-17.317496">
<ele>366.399500</ele>
<time>2009-06-12T11:28:59Z</time>
</trkpt>
<trkpt lat="28.107004" lon="-17.317524">
<ele>368.803000</ele>
<time>2009-06-12T11:29:15Z</time>
</trkpt>
<trkpt lat="28.106969" lon="-17.317486">
<ele>371.206300</ele>
<time>2009-06-12T11:29:50Z</time>
</trkpt>
<trkpt lat="28.106923" lon="-17.317422">
<ele>373.128900</ele>
<time>2009-06-12T11:30:17Z</time>
</trkpt>
<trkpt lat="28.106923" lon="-17.317441">
<ele>376.012800</ele>
<time>2009-06-12T11:30:45Z</time>
</trkpt>
<trkpt lat="28.106915" lon="-17.317473">
<ele>378.416100</ele>
<time>2009-06-12T11:31:12Z</time>
</trkpt>
<trkpt lat="28.106916" lon="-17.317503">
<ele>379.858000</ele>
<time>2009-06-12T11:31:43Z</time>
</trkpt>
<trkpt lat="28.106909" lon="-17.317489">
<ele>380.338700</ele>
<time>2009-06-12T11:31:58Z</time>
</trkpt>
<trkpt lat="28.106747" lon="-17.317491">
<ele>380.819500</ele>
<time>2009-06-12T11:32:11Z</time>
</trkpt>
<trkpt lat="28.106669" lon="-17.317397">
<ele>383.703200</ele>
<time>2009-06-12T11:33:04Z</time>
</trkpt>
<trkpt lat="28.106602" lon="-17.317314">
<ele>386.587400</ele>
<time>2009-06-12T11:33:44Z</time>
</trkpt>
<trkpt lat="28.106655" lon="-17.317224">
<ele>389.951900</ele>
<time>2009-06-12T11:34:13Z</time>
</trkpt>
<trkpt lat="28.106530" lon="-17.317220">
<ele>392.835900</ele>
<time>2009-06-12T11:34:45Z</time>
</trkpt>
<trkpt lat="28.106382" lon="-17.317123">
<ele>395.239100</ele>
<time>2009-06-12T11:35:11Z</time>
</trkpt>
<trkpt lat="28.106333" lon="-17.317116">
<ele>396.681200</ele>
<time>2009-06-12T11:36:06Z</time>
</trkpt>
<trkpt lat="28.106249" lon="-17.317208">
<ele>399.084400</ele>
<time>2009-06-12T11:36:32Z</time>
</trkpt>
<trkpt lat="28.106283" lon="-17.317237">
<ele>401.968500</ele>
<time>2009-06-12T11:37:28Z</time>
</trkpt>
<trkpt lat="28.106294" lon="-17.317321">
<ele>403.410400</ele>
<time>2009-06-12T11:38:06Z</time>
</trkpt>
<trkpt lat="28.106267" lon="-17.317376">
<ele>401.968500</ele>
<time>2009-06-12T11:38:48Z</time>
</trkpt>
<trkpt lat="28.106157" lon="-17.317437">
<ele>400.526500</ele>
<time>2009-06-12T11:39:15Z</time>
</trkpt>
<trkpt lat="28.106122" lon="-17.317508">
<ele>401.968500</ele>
<time>2009-06-12T11:39:29Z</time>
</trkpt>
<trkpt lat="28.106068" lon="-17.317525">
<ele>401.968500</ele>
<time>2009-06-12T11:39:57Z</time>
</trkpt>
<trkpt lat="28.106069" lon="-17.317446">
<ele>404.371700</ele>
<time>2009-06-12T11:41:01Z</time>
</trkpt>
<trkpt lat="28.106062" lon="-17.317379">
<ele>407.255600</ele>
<time>2009-06-12T11:41:31Z</time>
</trkpt>
<trkpt lat="28.105966" lon="-17.317359">
<ele>408.697600</ele>
<time>2009-06-12T11:42:03Z</time>
</trkpt>
<trkpt lat="28.105946" lon="-17.317462">
<ele>410.139600</ele>
<time>2009-06-12T11:42:24Z</time>
</trkpt>
<trkpt lat="28.105914" lon="-17.317471">
<ele>413.023600</ele>
<time>2009-06-12T11:42:49Z</time>
</trkpt>
<trkpt lat="28.105806" lon="-17.317507">
<ele>413.504300</ele>
<time>2009-06-12T11:43:12Z</time>
</trkpt>
<trkpt lat="28.105742" lon="-17.317580">
<ele>413.504300</ele>
<time>2009-06-12T11:43:39Z</time>
</trkpt>
<trkpt lat="28.105714" lon="-17.317620">
<ele>416.868900</ele>
<time>2009-06-12T11:44:09Z</time>
</trkpt>
<trkpt lat="28.105944" lon="-17.317683">
<ele>418.791500</ele>
<time>2009-06-12T11:44:33Z</time>
</trkpt>
<trkpt lat="28.105874" lon="-17.317720">
<ele>421.675400</ele>
<time>2009-06-12T11:44:59Z</time>
</trkpt>
<trkpt lat="28.105853" lon="-17.317832">
<ele>421.675400</ele>
<time>2009-06-12T11:45:31Z</time>
</trkpt>
<trkpt lat="28.105829" lon="-17.317850">
<ele>419.752800</ele>
<time>2009-06-12T11:45:50Z</time>
</trkpt>
<trkpt lat="28.105709" lon="-17.317826">
<ele>418.310800</ele>
<time>2009-06-12T11:46:25Z</time>
</trkpt>
<trkpt lat="28.105671" lon="-17.317769">
<ele>417.830200</ele>
<time>2009-06-12T11:46:47Z</time>
</trkpt>
<trkpt lat="28.105531" lon="-17.317755">
<ele>416.868900</ele>
<time>2009-06-12T11:47:27Z</time>
</trkpt>
<trkpt lat="28.105400" lon="-17.317810">
<ele>417.349600</ele>
<time>2009-06-12T11:48:02Z</time>
</trkpt>
<trkpt lat="28.105472" lon="-17.317861">
<ele>417.830200</ele>
<time>2009-06-12T11:48:28Z</time>
</trkpt>
<trkpt lat="28.105431" lon="-17.317828">
<ele>418.310800</ele>
<time>2009-06-12T11:49:06Z</time>
</trkpt>
<trkpt lat="28.105344" lon="-17.317692">
<ele>418.310800</ele>
<time>2009-06-12T11:49:29Z</time>
</trkpt>
<trkpt lat="28.105386" lon="-17.317569">
<ele>421.194800</ele>
<time>2009-06-12T11:49:49Z</time>
</trkpt>
<trkpt lat="28.105342" lon="-17.317446">
<ele>424.078700</ele>
<time>2009-06-12T11:50:13Z</time>
</trkpt>
<trkpt lat="28.105343" lon="-17.317401">
<ele>426.001300</ele>
<time>2009-06-12T11:50:53Z</time>
</trkpt>
<trkpt lat="28.105299" lon="-17.317455">
<ele>428.404700</ele>
<time>2009-06-12T11:51:15Z</time>
</trkpt>
<trkpt lat="28.105273" lon="-17.317369">
<ele>430.327300</ele>
<time>2009-06-12T11:51:33Z</time>
</trkpt>
<trkpt lat="28.105265" lon="-17.317232">
<ele>432.730700</ele>
<time>2009-06-12T11:51:54Z</time>
</trkpt>
<trkpt lat="28.105296" lon="-17.317232">
<ele>435.133900</ele>
<time>2009-06-12T11:52:19Z</time>
</trkpt>
<trkpt lat="28.105340" lon="-17.317291">
<ele>436.095200</ele>
<time>2009-06-12T11:52:42Z</time>
</trkpt>
<trkpt lat="28.105348" lon="-17.317305">
<ele>438.017800</ele>
<time>2009-06-12T11:53:21Z</time>
</trkpt>
<trkpt lat="28.105397" lon="-17.317340">
<ele>439.459700</ele>
<time>2009-06-12T11:53:56Z</time>
</trkpt>
<trkpt lat="28.105438" lon="-17.317326">
<ele>442.343900</ele>
<time>2009-06-12T11:54:30Z</time>
</trkpt>
<trkpt lat="28.105472" lon="-17.317300">
<ele>445.227700</ele>
<time>2009-06-12T11:55:29Z</time>
</trkpt>
<trkpt lat="28.105488" lon="-17.317276">
<ele>447.631000</ele>
<time>2009-06-12T11:55:44Z</time>
</trkpt>
<trkpt lat="28.105419" lon="-17.317146">
<ele>450.515000</ele>
<time>2009-06-12T11:56:39Z</time>
</trkpt>
<trkpt lat="28.105440" lon="-17.317130">
<ele>452.437600</ele>
<time>2009-06-12T11:56:59Z</time>
</trkpt>
<trkpt lat="28.105466" lon="-17.317079">
<ele>453.879600</ele>
<time>2009-06-12T11:57:18Z</time>
</trkpt>
<trkpt lat="28.105486" lon="-17.316989">
<ele>456.283000</ele>
<time>2009-06-12T11:57:43Z</time>
</trkpt>
<trkpt lat="28.105471" lon="-17.316945">
<ele>460.128200</ele>
<time>2009-06-12T11:58:08Z</time>
</trkpt>
<trkpt lat="28.105489" lon="-17.316941">
<ele>461.089500</ele>
<time>2009-06-12T11:58:25Z</time>
</trkpt>
<trkpt lat="28.105487" lon="-17.316916">
<ele>462.050800</ele>
<time>2009-06-12T11:58:48Z</time>
</trkpt>
<trkpt lat="28.105466" lon="-17.316881">
<ele>464.454100</ele>
<time>2009-06-12T11:59:09Z</time>
</trkpt>
<trkpt lat="28.105426" lon="-17.316809">
<ele>466.857400</ele>
<time>2009-06-12T11:59:31Z</time>
</trkpt>
<trkpt lat="28.105440" lon="-17.316765">
<ele>468.780000</ele>
<time>2009-06-12T11:59:52Z</time>
</trkpt>
<trkpt lat="28.105446" lon="-17.316692">
<ele>471.663900</ele>
<time>2009-06-12T12:00:27Z</time>
</trkpt>
<trkpt lat="28.105475" lon="-17.316691">
<ele>473.586700</ele>
<time>2009-06-12T12:00:44Z</time>
</trkpt>
<trkpt lat="28.105470" lon="-17.316583">
<ele>476.470600</ele>
<time>2009-06-12T12:01:13Z</time>
</trkpt>
<trkpt lat="28.105440" lon="-17.316568">
<ele>478.393200</ele>
<time>2009-06-12T12:01:41Z</time>
</trkpt>
<trkpt lat="28.105421" lon="-17.316517">
<ele>481.757800</ele>
<time>2009-06-12T12:02:11Z</time>
</trkpt>
<trkpt lat="28.105385" lon="-17.316469">
<ele>484.641800</ele>
<time>2009-06-12T12:02:34Z</time>
</trkpt>
<trkpt lat="28.105382" lon="-17.316464">
<ele>485.603000</ele>
<time>2009-06-12T12:03:38Z</time>
</trkpt>
<trkpt lat="28.105378" lon="-17.316421">
<ele>488.967800</ele>
<time>2009-06-12T12:09:39Z</time>
</trkpt>
<trkpt lat="28.105335" lon="-17.316456">
<ele>492.332400</ele>
<time>2009-06-12T12:19:57Z</time>
</trkpt>
<trkpt lat="28.105250" lon="-17.316390">
<ele>495.216200</ele>
<time>2009-06-12T12:20:17Z</time>
</trkpt>
<trkpt lat="28.105272" lon="-17.316336">
<ele>498.100300</ele>
<time>2009-06-12T12:20:46Z</time>
</trkpt>
<trkpt lat="28.105285" lon="-17.316305">
<ele>501.464800</ele>
<time>2009-06-12T12:21:09Z</time>
</trkpt>
<trkpt lat="28.105276" lon="-17.316237">
<ele>504.348900</ele>
<time>2009-06-12T12:21:41Z</time>
</trkpt>
<trkpt lat="28.105112" lon="-17.316138">
<ele>507.232800</ele>
<time>2009-06-12T12:22:23Z</time>
</trkpt>
<trkpt lat="28.105109" lon="-17.316099">
<ele>510.116700</ele>
<time>2009-06-12T12:22:50Z</time>
</trkpt>
<trkpt lat="28.105143" lon="-17.316080">
<ele>513.481400</ele>
<time>2009-06-12T12:23:18Z</time>
</trkpt>
<trkpt lat="28.105174" lon="-17.316020">
<ele>516.365200</ele>
<time>2009-06-12T12:23:48Z</time>
</trkpt>
<trkpt lat="28.105200" lon="-17.315971">
<ele>518.287800</ele>
<time>2009-06-12T12:24:06Z</time>
</trkpt>
<trkpt lat="28.105314" lon="-17.315972">
<ele>520.210600</ele>
<time>2009-06-12T12:24:28Z</time>
</trkpt>
<trkpt lat="28.105317" lon="-17.315930">
<ele>522.133200</ele>
<time>2009-06-12T12:24:47Z</time>
</trkpt>
<trkpt lat="28.105252" lon="-17.315891">
<ele>522.613900</ele>
<time>2009-06-12T12:25:09Z</time>
</trkpt>
<trkpt lat="28.105289" lon="-17.315842">
<ele>525.017200</ele>
<time>2009-06-12T12:25:26Z</time>
</trkpt>
<trkpt lat="28.105297" lon="-17.315834">
<ele>528.381800</ele>
<time>2009-06-12T12:25:49Z</time>
</trkpt>
<trkpt lat="28.105338" lon="-17.315779">
<ele>530.785200</ele>
<time>2009-06-12T12:26:26Z</time>
</trkpt>
<trkpt lat="28.105475" lon="-17.315705">
<ele>534.149700</ele>
<time>2009-06-12T12:26:53Z</time>
</trkpt>
<trkpt lat="28.105593" lon="-17.315713">
<ele>537.033700</ele>
<time>2009-06-12T12:27:20Z</time>
</trkpt>
<trkpt lat="28.105637" lon="-17.315722">
<ele>539.436900</ele>
<time>2009-06-12T12:27:45Z</time>
</trkpt>
<trkpt lat="28.105743" lon="-17.315726">
<ele>540.878900</ele>
<time>2009-06-12T12:28:07Z</time>
</trkpt>
<trkpt lat="28.105776" lon="-17.315638">
<ele>544.243700</ele>
<time>2009-06-12T12:28:35Z</time>
</trkpt>
<trkpt lat="28.105734" lon="-17.315622">
<ele>545.204800</ele>
<time>2009-06-12T12:28:54Z</time>
</trkpt>
<trkpt lat="28.105768" lon="-17.315581">
<ele>548.088900</ele>
<time>2009-06-12T12:29:21Z</time>
</trkpt>
<trkpt lat="28.105763" lon="-17.315537">
<ele>548.569300</ele>
<time>2009-06-12T12:29:51Z</time>
</trkpt>
<trkpt lat="28.105730" lon="-17.315483">
<ele>551.934100</ele>
<time>2009-06-12T12:31:08Z</time>
</trkpt>
<trkpt lat="28.105727" lon="-17.315443">
<ele>552.414600</ele>
<time>2009-06-12T12:31:37Z</time>
</trkpt>
<trkpt lat="28.105674" lon="-17.315408">
<ele>554.817900</ele>
<time>2009-06-12T12:32:03Z</time>
</trkpt>
<trkpt lat="28.105633" lon="-17.315341">
<ele>556.260000</ele>
<time>2009-06-12T12:32:18Z</time>
</trkpt>
<trkpt lat="28.105567" lon="-17.315265">
<ele>559.624800</ele>
<time>2009-06-12T12:32:41Z</time>
</trkpt>
<trkpt lat="28.105541" lon="-17.315249">
<ele>561.547400</ele>
<time>2009-06-12T12:32:56Z</time>
</trkpt>
<trkpt lat="28.105428" lon="-17.315194">
<ele>564.431200</ele>
<time>2009-06-12T12:33:20Z</time>
</trkpt>
<trkpt lat="28.105355" lon="-17.315154">
<ele>565.873300</ele>
<time>2009-06-12T12:33:37Z</time>
</trkpt>
<trkpt lat="28.105345" lon="-17.315088">
<ele>568.757100</ele>
<time>2009-06-12T12:38:51Z</time>
</trkpt>
<trkpt lat="28.105376" lon="-17.314973">
<ele>571.640900</ele>
<time>2009-06-12T12:42:48Z</time>
</trkpt>
<trkpt lat="28.105223" lon="-17.314807">
<ele>575.005900</ele>
<time>2009-06-12T12:43:21Z</time>
</trkpt>
<trkpt lat="28.105219" lon="-17.314743">
<ele>577.889600</ele>
<time>2009-06-12T12:43:52Z</time>
</trkpt>
<trkpt lat="28.105097" lon="-17.314655">
<ele>580.773700</ele>
<time>2009-06-12T12:44:16Z</time>
</trkpt>
<trkpt lat="28.104979" lon="-17.314681">
<ele>584.138200</ele>
<time>2009-06-12T12:44:44Z</time>
</trkpt>
<trkpt lat="28.105051" lon="-17.314612">
<ele>587.022000</ele>
<time>2009-06-12T12:45:10Z</time>
</trkpt>
<trkpt lat="28.105101" lon="-17.314564">
<ele>590.387000</ele>
<time>2009-06-12T12:45:36Z</time>
</trkpt>
<trkpt lat="28.105248" lon="-17.314509">
<ele>593.270800</ele>
<time>2009-06-12T12:46:03Z</time>
</trkpt>
<trkpt lat="28.105266" lon="-17.314492">
<ele>596.154800</ele>
<time>2009-06-12T12:46:25Z</time>
</trkpt>
<trkpt lat="28.105297" lon="-17.314485">
<ele>599.519300</ele>
<time>2009-06-12T12:46:47Z</time>
</trkpt>
<trkpt lat="28.105387" lon="-17.314564">
<ele>602.883800</ele>
<time>2009-06-12T12:47:20Z</time>
</trkpt>
<trkpt lat="28.105472" lon="-17.314551">
<ele>604.806600</ele>
<time>2009-06-12T12:47:48Z</time>
</trkpt>
<trkpt lat="28.105500" lon="-17.314557">
<ele>606.248500</ele>
<time>2009-06-12T12:48:16Z</time>
</trkpt>
<trkpt lat="28.105464" lon="-17.314540">
<ele>606.729200</ele>
<time>2009-06-12T12:48:22Z</time>
</trkpt>
<trkpt lat="28.105445" lon="-17.314428">
<ele>609.613300</ele>
<time>2009-06-12T12:48:37Z</time>
</trkpt>
<trkpt lat="28.105400" lon="-17.314407">
<ele>610.574500</ele>
<time>2009-06-12T12:48:52Z</time>
</trkpt>
<trkpt lat="28.105333" lon="-17.314337">
<ele>613.458500</ele>
<time>2009-06-12T12:49:14Z</time>
</trkpt>
<trkpt lat="28.105274" lon="-17.314310">
<ele>615.381100</ele>
<time>2009-06-12T12:49:29Z</time>
</trkpt>
<trkpt lat="28.105254" lon="-17.314223">
<ele>617.784200</ele>
<time>2009-06-12T12:49:47Z</time>
</trkpt>
<trkpt lat="28.105250" lon="-17.314229">
<ele>619.707000</ele>
<time>2009-06-12T12:50:05Z</time>
</trkpt>
<trkpt lat="28.105196" lon="-17.314169">
<ele>622.110400</ele>
<time>2009-06-12T12:50:23Z</time>
</trkpt>
<trkpt lat="28.105119" lon="-17.314084">
<ele>624.033000</ele>
<time>2009-06-12T12:50:37Z</time>
</trkpt>
<trkpt lat="28.105081" lon="-17.314017">
<ele>625.955600</ele>
<time>2009-06-12T12:50:54Z</time>
</trkpt>
<trkpt lat="28.104984" lon="-17.313997">
<ele>628.839600</ele>
<time>2009-06-12T12:51:20Z</time>
</trkpt>
<trkpt lat="28.104916" lon="-17.314028">
<ele>629.320100</ele>
<time>2009-06-12T12:51:35Z</time>
</trkpt>
<trkpt lat="28.104868" lon="-17.314038">
<ele>629.800800</ele>
<time>2009-06-12T12:51:54Z</time>
</trkpt>
<trkpt lat="28.104805" lon="-17.314157">
<ele>631.242900</ele>
<time>2009-06-12T12:52:13Z</time>
</trkpt>
<trkpt lat="28.104714" lon="-17.314204">
<ele>633.165300</ele>
<time>2009-06-12T12:52:31Z</time>
</trkpt>
<trkpt lat="28.104728" lon="-17.314180">
<ele>635.088100</ele>
<time>2009-06-12T12:52:46Z</time>
</trkpt>
<trkpt lat="28.104763" lon="-17.314144">
<ele>636.530300</ele>
<time>2009-06-12T12:53:01Z</time>
</trkpt>
<trkpt lat="28.104721" lon="-17.314107">
<ele>638.452900</ele>
<time>2009-06-12T12:53:27Z</time>
</trkpt>
<trkpt lat="28.104716" lon="-17.314054">
<ele>640.375500</ele>
<time>2009-06-12T12:53:49Z</time>
</trkpt>
<trkpt lat="28.104635" lon="-17.313989">
<ele>643.740000</ele>
<time>2009-06-12T12:54:16Z</time>
</trkpt>
<trkpt lat="28.104529" lon="-17.313939">
<ele>645.181900</ele>
<time>2009-06-12T12:54:35Z</time>
</trkpt>
<trkpt lat="28.104442" lon="-17.313904">
<ele>647.585200</ele>
<time>2009-06-12T12:54:56Z</time>
</trkpt>
<trkpt lat="28.104392" lon="-17.313860">
<ele>650.949700</ele>
<time>2009-06-12T12:55:14Z</time>
</trkpt>
<trkpt lat="28.104299" lon="-17.313833">
<ele>653.834000</ele>
<time>2009-06-12T12:55:56Z</time>
</trkpt>
<trkpt lat="28.104275" lon="-17.313804">
<ele>654.795200</ele>
<time>2009-06-12T12:56:14Z</time>
</trkpt>
<trkpt lat="28.104059" lon="-17.313711">
<ele>654.795200</ele>
<time>2009-06-12T12:57:21Z</time>
</trkpt>
<trkpt lat="28.103915" lon="-17.313751">
<ele>656.717800</ele>
<time>2009-06-12T12:58:09Z</time>
</trkpt>
<trkpt lat="28.103765" lon="-17.313687">
<ele>657.198500</ele>
<time>2009-06-12T12:58:35Z</time>
</trkpt>
<trkpt lat="28.103700" lon="-17.313699">
<ele>658.159900</ele>
<time>2009-06-12T12:58:57Z</time>
</trkpt>
<trkpt lat="28.103656" lon="-17.313685">
<ele>659.121100</ele>
<time>2009-06-12T12:59:34Z</time>
</trkpt>
<trkpt lat="28.103643" lon="-17.313677">
<ele>659.121100</ele>
<time>2009-06-12T13:00:34Z</time>
</trkpt>
<trkpt lat="28.103644" lon="-17.313679">
<ele>658.159900</ele>
<time>2009-06-12T13:01:26Z</time>
</trkpt>
<trkpt lat="28.103660" lon="-17.313708">
<ele>667.772700</ele>
<time>2009-06-12T13:05:51Z</time>
</trkpt>
<trkpt lat="28.103660" lon="-17.313709">
<ele>663.447000</ele>
<time>2009-06-12T13:05:52Z</time>
</trkpt>
<trkpt lat="28.103660" lon="-17.313711">
<ele>661.043700</ele>
<time>2009-06-12T13:05:54Z</time>
</trkpt>
<trkpt lat="28.103704" lon="-17.313447">
<ele>660.082300</ele>
<time>2009-06-12T13:16:26Z</time>
</trkpt>
<trkpt lat="28.103746" lon="-17.313248">
<ele>662.005100</ele>
<time>2009-06-12T13:16:47Z</time>
</trkpt>
<trkpt lat="28.103832" lon="-17.313119">
<ele>663.927500</ele>
<time>2009-06-12T13:17:07Z</time>
</trkpt>
<trkpt lat="28.103935" lon="-17.313085">
<ele>664.888900</ele>
<time>2009-06-12T13:17:23Z</time>
</trkpt>
<trkpt lat="28.104008" lon="-17.312967">
<ele>665.850300</ele>
<time>2009-06-12T13:17:40Z</time>
</trkpt>
<trkpt lat="28.104042" lon="-17.312802">
<ele>665.850300</ele>
<time>2009-06-12T13:17:56Z</time>
</trkpt>
<trkpt lat="28.104071" lon="-17.312637">
<ele>668.734400</ele>
<time>2009-06-12T13:18:17Z</time>
</trkpt>
<trkpt lat="28.104053" lon="-17.312494">
<ele>668.253700</ele>
<time>2009-06-12T13:18:36Z</time>
</trkpt>
<trkpt lat="28.104042" lon="-17.312530">
<ele>669.695800</ele>
<time>2009-06-12T13:18:54Z</time>
</trkpt>
<trkpt lat="28.104040" lon="-17.312622">
<ele>668.734400</ele>
<time>2009-06-12T13:19:08Z</time>
</trkpt>
<trkpt lat="28.104099" lon="-17.312556">
<ele>670.657000</ele>
<time>2009-06-12T13:19:34Z</time>
</trkpt>
<trkpt lat="28.104140" lon="-17.312391">
<ele>671.137700</ele>
<time>2009-06-12T13:19:55Z</time>
</trkpt>
<trkpt lat="28.104278" lon="-17.312372">
<ele>673.060300</ele>
<time>2009-06-12T13:20:19Z</time>
</trkpt>
<trkpt lat="28.104372" lon="-17.312355">
<ele>674.502200</ele>
<time>2009-06-12T13:20:36Z</time>
</trkpt>
<trkpt lat="28.104428" lon="-17.312327">
<ele>676.905500</ele>
<time>2009-06-12T13:21:02Z</time>
</trkpt>
<trkpt lat="28.104455" lon="-17.312278">
<ele>677.866700</ele>
<time>2009-06-12T13:21:36Z</time>
</trkpt>
<trkpt lat="28.104621" lon="-17.312250">
<ele>680.270000</ele>
<time>2009-06-12T13:21:59Z</time>
</trkpt>
<trkpt lat="28.104683" lon="-17.312269">
<ele>683.153800</ele>
<time>2009-06-12T13:22:13Z</time>
</trkpt>
<trkpt lat="28.104832" lon="-17.312200">
<ele>683.634500</ele>
<time>2009-06-12T13:22:45Z</time>
</trkpt>
<trkpt lat="28.104879" lon="-17.312120">
<ele>685.076900</ele>
<time>2009-06-12T13:23:02Z</time>
</trkpt>
<trkpt lat="28.104941" lon="-17.312079">
<ele>686.038100</ele>
<time>2009-06-12T13:23:20Z</time>
</trkpt>
<trkpt lat="28.104999" lon="-17.312043">
<ele>687.960700</ele>
<time>2009-06-12T13:23:36Z</time>
</trkpt>
<trkpt lat="28.105041" lon="-17.311997">
<ele>689.402600</ele>
<time>2009-06-12T13:23:54Z</time>
</trkpt>
<trkpt lat="28.105108" lon="-17.311892">
<ele>690.844500</ele>
<time>2009-06-12T13:24:34Z</time>
</trkpt>
<trkpt lat="28.105167" lon="-17.311885">
<ele>692.767300</ele>
<time>2009-06-12T13:24:50Z</time>
</trkpt>
<trkpt lat="28.105226" lon="-17.311843">
<ele>694.209200</ele>
<time>2009-06-12T13:25:07Z</time>
</trkpt>
<trkpt lat="28.105266" lon="-17.311783">
<ele>696.131800</ele>
<time>2009-06-12T13:25:42Z</time>
</trkpt>
<trkpt lat="28.105281" lon="-17.311680">
<ele>699.496300</ele>
<time>2009-06-12T13:26:21Z</time>
</trkpt>
<trkpt lat="28.105298" lon="-17.311783">
<ele>701.899900</ele>
<time>2009-06-12T13:26:53Z</time>
</trkpt>
<trkpt lat="28.105350" lon="-17.311726">
<ele>703.822500</ele>
<time>2009-06-12T13:27:53Z</time>
</trkpt>
<trkpt lat="28.105400" lon="-17.311794">
<ele>703.341800</ele>
<time>2009-06-12T13:31:10Z</time>
</trkpt>
<trkpt lat="28.105352" lon="-17.311889">
<ele>700.458000</ele>
<time>2009-06-12T13:31:57Z</time>
</trkpt>
<trkpt lat="28.105316" lon="-17.311910">
<ele>699.015600</ele>
<time>2009-06-12T13:32:22Z</time>
</trkpt>
<trkpt lat="28.105363" lon="-17.311906">
<ele>696.131800</ele>
<time>2009-06-12T13:33:00Z</time>
</trkpt>
<trkpt lat="28.105376" lon="-17.311947">
<ele>695.170400</ele>
<time>2009-06-12T13:33:28Z</time>
</trkpt>
<trkpt lat="28.105430" lon="-17.311901">
<ele>692.286600</ele>
<time>2009-06-12T13:35:09Z</time>
</trkpt>
<trkpt lat="28.105569" lon="-17.311835">
<ele>689.883300</ele>
<time>2009-06-12T13:35:52Z</time>
</trkpt>
<trkpt lat="28.105719" lon="-17.311768">
<ele>686.999300</ele>
<time>2009-06-12T13:36:21Z</time>
</trkpt>
<trkpt lat="28.105758" lon="-17.311695">
<ele>685.557400</ele>
<time>2009-06-12T13:36:45Z</time>
</trkpt>
<trkpt lat="28.105902" lon="-17.311653">
<ele>685.557400</ele>
<time>2009-06-12T13:37:04Z</time>
</trkpt>
<trkpt lat="28.105951" lon="-17.311614">
<ele>685.076900</ele>
<time>2009-06-12T13:37:32Z</time>
</trkpt>
<trkpt lat="28.105959" lon="-17.311620">
<ele>686.038100</ele>
<time>2009-06-12T13:37:55Z</time>
</trkpt>
<trkpt lat="28.106017" lon="-17.311690">
<ele>683.634500</ele>
<time>2009-06-12T13:38:32Z</time>
</trkpt>
<trkpt lat="28.106018" lon="-17.311586">
<ele>681.711900</ele>
<time>2009-06-12T13:39:25Z</time>
</trkpt>
<trkpt lat="28.106019" lon="-17.311586">
<ele>680.270000</ele>
<time>2009-06-12T13:39:37Z</time>
</trkpt>
<trkpt lat="28.106019" lon="-17.311586">
<ele>676.905500</ele>
<time>2009-06-12T13:39:42Z</time>
</trkpt>
<trkpt lat="28.106019" lon="-17.311585">
<ele>680.750700</ele>
<time>2009-06-12T13:39:46Z</time>
</trkpt>
<trkpt lat="28.105989" lon="-17.311457">
<ele>679.308600</ele>
<time>2009-06-12T13:40:25Z</time>
</trkpt>
<trkpt lat="28.105981" lon="-17.311417">
<ele>678.828100</ele>
<time>2009-06-12T13:41:08Z</time>
</trkpt>
<trkpt lat="28.106134" lon="-17.311454">
<ele>678.828100</ele>
<time>2009-06-12T13:41:29Z</time>
</trkpt>
<trkpt lat="28.106247" lon="-17.311483">
<ele>678.828100</ele>
<time>2009-06-12T13:41:52Z</time>
</trkpt>
<trkpt lat="28.106132" lon="-17.311322">
<ele>677.866700</ele>
<time>2009-06-12T13:42:32Z</time>
</trkpt>
<trkpt lat="28.106128" lon="-17.311274">
<ele>677.386200</ele>
<time>2009-06-12T13:43:14Z</time>
</trkpt>
<trkpt lat="28.106140" lon="-17.311273">
<ele>677.386200</ele>
<time>2009-06-12T13:43:53Z</time>
</trkpt>
<trkpt lat="28.106074" lon="-17.311209">
<ele>676.905500</ele>
<time>2009-06-12T13:44:40Z</time>
</trkpt>
<trkpt lat="28.106116" lon="-17.311194">
<ele>676.424800</ele>
<time>2009-06-12T13:45:05Z</time>
</trkpt>
<trkpt lat="28.106080" lon="-17.311193">
<ele>676.905500</ele>
<time>2009-06-12T13:46:06Z</time>
</trkpt>
<trkpt lat="28.106157" lon="-17.311014">
<ele>676.424800</ele>
<time>2009-06-12T13:46:28Z</time>
</trkpt>
<trkpt lat="28.106251" lon="-17.310872">
<ele>673.541000</ele>
<time>2009-06-12T13:46:58Z</time>
</trkpt>
<trkpt lat="28.106283" lon="-17.310710">
<ele>671.137700</ele>
<time>2009-06-12T13:47:19Z</time>
</trkpt>
<trkpt lat="28.106359" lon="-17.310522">
<ele>670.657000</ele>
<time>2009-06-12T13:47:42Z</time>
</trkpt>
<trkpt lat="28.106483" lon="-17.310339">
<ele>670.657000</ele>
<time>2009-06-12T13:48:14Z</time>
</trkpt>
<trkpt lat="28.106499" lon="-17.310581">
<ele>671.618200</ele>
<time>2009-06-12T13:48:52Z</time>
</trkpt>
<trkpt lat="28.106468" lon="-17.310409">
<ele>671.618200</ele>
<time>2009-06-12T13:49:11Z</time>
</trkpt>
<trkpt lat="28.106647" lon="-17.310201">
<ele>672.098900</ele>
<time>2009-06-12T13:49:37Z</time>
</trkpt>
<trkpt lat="28.106849" lon="-17.310069">
<ele>672.579600</ele>
<time>2009-06-12T13:50:01Z</time>
</trkpt>
<trkpt lat="28.106931" lon="-17.310069">
<ele>673.060300</ele>
<time>2009-06-12T13:50:16Z</time>
</trkpt>
<trkpt lat="28.107083" lon="-17.310056">
<ele>674.021500</ele>
<time>2009-06-12T13:50:36Z</time>
</trkpt>
<trkpt lat="28.107147" lon="-17.309995">
<ele>674.982900</ele>
<time>2009-06-12T13:50:51Z</time>
</trkpt>
<trkpt lat="28.107166" lon="-17.309872">
<ele>674.021500</ele>
<time>2009-06-12T13:51:12Z</time>
</trkpt>
<trkpt lat="28.107216" lon="-17.309736">
<ele>673.541000</ele>
<time>2009-06-12T13:51:33Z</time>
</trkpt>
<trkpt lat="28.107173" lon="-17.309581">
<ele>673.060300</ele>
<time>2009-06-12T13:53:08Z</time>
</trkpt>
<trkpt lat="28.107229" lon="-17.309403">
<ele>672.098900</ele>
<time>2009-06-12T13:53:28Z</time>
</trkpt>
<trkpt lat="28.107281" lon="-17.309156">
<ele>672.098900</ele>
<time>2009-06-12T13:53:46Z</time>
</trkpt>
<trkpt lat="28.107316" lon="-17.309116">
<ele>673.541000</ele>
<time>2009-06-12T13:54:07Z</time>
</trkpt>
<trkpt lat="28.107466" lon="-17.309091">
<ele>672.579600</ele>
<time>2009-06-12T13:54:46Z</time>
</trkpt>
<trkpt lat="28.107595" lon="-17.309001">
<ele>673.541000</ele>
<time>2009-06-12T13:55:06Z</time>
</trkpt>
<trkpt lat="28.107700" lon="-17.308941">
<ele>674.502200</ele>
<time>2009-06-12T13:55:28Z</time>
</trkpt>
<trkpt lat="28.107841" lon="-17.308899">
<ele>674.502200</ele>
<time>2009-06-12T13:56:00Z</time>
</trkpt>
<trkpt lat="28.107916" lon="-17.308505">
<ele>674.502200</ele>
<time>2009-06-12T13:56:24Z</time>
</trkpt>
<trkpt lat="28.107949" lon="-17.308460">
<ele>674.982900</ele>
<time>2009-06-12T13:57:03Z</time>
</trkpt>
<trkpt lat="28.108054" lon="-17.308344">
<ele>676.424800</ele>
<time>2009-06-12T13:57:15Z</time>
</trkpt>
<trkpt lat="28.108234" lon="-17.308096">
<ele>676.905500</ele>
<time>2009-06-12T13:57:39Z</time>
</trkpt>
<trkpt lat="28.108332" lon="-17.307986">
<ele>676.905500</ele>
<time>2009-06-12T13:58:03Z</time>
</trkpt>
<trkpt lat="28.108547" lon="-17.308064">
<ele>678.347400</ele>
<time>2009-06-12T13:58:35Z</time>
</trkpt>
<trkpt lat="28.108583" lon="-17.308017">
<ele>678.828100</ele>
<time>2009-06-12T13:59:01Z</time>
</trkpt>
<trkpt lat="28.108804" lon="-17.307864">
<ele>678.347400</ele>
<time>2009-06-12T13:59:17Z</time>
</trkpt>
<trkpt lat="28.108867" lon="-17.307901">
<ele>678.347400</ele>
<time>2009-06-12T13:59:45Z</time>
</trkpt>
<trkpt lat="28.108938" lon="-17.307891">
<ele>679.308600</ele>
<time>2009-06-12T14:00:04Z</time>
</trkpt>
<trkpt lat="28.108980" lon="-17.307969">
<ele>679.789300</ele>
<time>2009-06-12T14:00:16Z</time>
</trkpt>
<trkpt lat="28.109016" lon="-17.308053">
<ele>679.308600</ele>
<time>2009-06-12T14:00:25Z</time>
</trkpt>
<trkpt lat="28.109115" lon="-17.308125">
<ele>680.270000</ele>
<time>2009-06-12T14:00:39Z</time>
</trkpt>
<trkpt lat="28.109105" lon="-17.308117">
<ele>680.270000</ele>
<time>2009-06-12T14:00:54Z</time>
</trkpt>
<trkpt lat="28.109362" lon="-17.308010">
<ele>681.231400</ele>
<time>2009-06-12T14:01:28Z</time>
</trkpt>
<trkpt lat="28.109470" lon="-17.308021">
<ele>681.231400</ele>
<time>2009-06-12T14:01:50Z</time>
</trkpt>
<trkpt lat="28.109709" lon="-17.307889">
<ele>682.673300</ele>
<time>2009-06-12T14:02:13Z</time>
</trkpt>
<trkpt lat="28.109751" lon="-17.307861">
<ele>683.634500</ele>
<time>2009-06-12T14:02:30Z</time>
</trkpt>
<trkpt lat="28.109854" lon="-17.307782">
<ele>683.153800</ele>
<time>2009-06-12T14:02:56Z</time>
</trkpt>
<trkpt lat="28.109855" lon="-17.307808">
<ele>683.153800</ele>
<time>2009-06-12T14:03:14Z</time>
</trkpt>
<trkpt lat="28.109765" lon="-17.307777">
<ele>683.153800</ele>
<time>2009-06-12T14:03:48Z</time>
</trkpt>
<trkpt lat="28.109749" lon="-17.307641">
<ele>683.153800</ele>
<time>2009-06-12T14:04:40Z</time>
</trkpt>
<trkpt lat="28.108957" lon="-17.306934">
<ele>683.153800</ele>
<time>2009-06-12T14:04:56Z</time>
</trkpt>
<trkpt lat="28.109216" lon="-17.306869">
<ele>682.192600</ele>
<time>2009-06-12T14:05:23Z</time>
</trkpt>
<trkpt lat="28.109413" lon="-17.307216">
<ele>682.192600</ele>
<time>2009-06-12T14:06:26Z</time>
</trkpt>
<trkpt lat="28.109511" lon="-17.307342">
<ele>681.711900</ele>
<time>2009-06-12T14:06:41Z</time>
</trkpt>
<trkpt lat="28.109514" lon="-17.307360">
<ele>681.711900</ele>
<time>2009-06-12T14:06:56Z</time>
</trkpt>
<trkpt lat="28.109526" lon="-17.307287">
<ele>682.192600</ele>
<time>2009-06-12T14:07:32Z</time>
</trkpt>
<trkpt lat="28.109568" lon="-17.307330">
<ele>681.711900</ele>
<time>2009-06-12T14:07:57Z</time>
</trkpt>
<trkpt lat="28.109603" lon="-17.307345">
<ele>681.231400</ele>
<time>2009-06-12T14:08:18Z</time>
</trkpt>
<trkpt lat="28.109607" lon="-17.307198">
<ele>678.347400</ele>
<time>2009-06-12T14:09:03Z</time>
</trkpt>
<trkpt lat="28.109680" lon="-17.307159">
<ele>676.905500</ele>
<time>2009-06-12T14:10:04Z</time>
</trkpt>
<trkpt lat="28.109641" lon="-17.307116">
<ele>673.541000</ele>
<time>2009-06-12T14:11:07Z</time>
</trkpt>
<trkpt lat="28.109697" lon="-17.307004">
<ele>671.137700</ele>
<time>2009-06-12T14:11:43Z</time>
</trkpt>
<trkpt lat="28.109732" lon="-17.306961">
<ele>670.176300</ele>
<time>2009-06-12T14:12:29Z</time>
</trkpt>
<trkpt lat="28.109777" lon="-17.306892">
<ele>669.695800</ele>
<time>2009-06-12T14:14:23Z</time>
</trkpt>
<trkpt lat="28.109776" lon="-17.306891">
<ele>670.176300</ele>
<time>2009-06-12T14:14:30Z</time>
</trkpt>
<trkpt lat="28.109835" lon="-17.306840">
<ele>666.811500</ele>
<time>2009-06-12T14:15:38Z</time>
</trkpt>
<trkpt lat="28.109891" lon="-17.306756">
<ele>663.927500</ele>
<time>2009-06-12T14:16:15Z</time>
</trkpt>
<trkpt lat="28.109926" lon="-17.306757">
<ele>664.888900</ele>
<time>2009-06-12T14:18:52Z</time>
</trkpt>
<trkpt lat="28.109897" lon="-17.306765">
<ele>663.927500</ele>
<time>2009-06-12T14:19:11Z</time>
</trkpt>
<trkpt lat="28.109987" lon="-17.306681">
<ele>662.485600</ele>
<time>2009-06-12T14:19:39Z</time>
</trkpt>
<trkpt lat="28.110052" lon="-17.306635">
<ele>661.043700</ele>
<time>2009-06-12T14:20:16Z</time>
</trkpt>
<trkpt lat="28.110022" lon="-17.306562">
<ele>659.601800</ele>
<time>2009-06-12T14:20:53Z</time>
</trkpt>
<trkpt lat="28.109980" lon="-17.306458">
<ele>659.121100</ele>
<time>2009-06-12T14:21:35Z</time>
</trkpt>
<trkpt lat="28.109979" lon="-17.306555">
<ele>657.679200</ele>
<time>2009-06-12T14:22:11Z</time>
</trkpt>
<trkpt lat="28.109958" lon="-17.306564">
<ele>658.159900</ele>
<time>2009-06-12T14:22:18Z</time>
</trkpt>
<trkpt lat="28.109915" lon="-17.306482">
<ele>658.159900</ele>
<time>2009-06-12T14:23:05Z</time>
</trkpt>
<trkpt lat="28.109966" lon="-17.306406">
<ele>658.640400</ele>
<time>2009-06-12T14:23:38Z</time>
</trkpt>
<trkpt lat="28.110147" lon="-17.306431">
<ele>656.237100</ele>
<time>2009-06-12T14:24:09Z</time>
</trkpt>
<trkpt lat="28.110125" lon="-17.306464">
<ele>654.314700</ele>
<time>2009-06-12T14:24:39Z</time>
</trkpt>
<trkpt lat="28.110165" lon="-17.306439">
<ele>652.391800</ele>
<time>2009-06-12T14:25:06Z</time>
</trkpt>
<trkpt lat="28.110238" lon="-17.306413">
<ele>652.391800</ele>
<time>2009-06-12T14:25:25Z</time>
</trkpt>
<trkpt lat="28.110236" lon="-17.306430">
<ele>650.949700</ele>
<time>2009-06-12T14:26:16Z</time>
</trkpt>
<trkpt lat="28.110207" lon="-17.306471">
<ele>647.585200</ele>
<time>2009-06-12T14:26:51Z</time>
</trkpt>
<trkpt lat="28.110294" lon="-17.306465">
<ele>648.546400</ele>
<time>2009-06-12T14:27:15Z</time>
</trkpt>
<trkpt lat="28.110378" lon="-17.306383">
<ele>645.181900</ele>
<time>2009-06-12T14:28:04Z</time>
</trkpt>
<trkpt lat="28.110361" lon="-17.306439">
<ele>642.298100</ele>
<time>2009-06-12T14:29:21Z</time>
</trkpt>
<trkpt lat="28.110384" lon="-17.306501">
<ele>640.856000</ele>
<time>2009-06-12T14:29:49Z</time>
</trkpt>
<trkpt lat="28.110397" lon="-17.306524">
<ele>637.491500</ele>
<time>2009-06-12T14:30:27Z</time>
</trkpt>
<trkpt lat="28.110436" lon="-17.306461">
<ele>635.568600</ele>
<time>2009-06-12T14:31:10Z</time>
</trkpt>
<trkpt lat="28.110461" lon="-17.306459">
<ele>635.088100</ele>
<time>2009-06-12T14:31:35Z</time>
</trkpt>
<trkpt lat="28.110364" lon="-17.306500">
<ele>633.165300</ele>
<time>2009-06-12T14:32:13Z</time>
</trkpt>
<trkpt lat="28.110378" lon="-17.306528">
<ele>629.800800</ele>
<time>2009-06-12T14:32:56Z</time>
</trkpt>
<trkpt lat="28.110397" lon="-17.306583">
<ele>626.917000</ele>
<time>2009-06-12T14:33:42Z</time>
</trkpt>
<trkpt lat="28.110415" lon="-17.306577">
<ele>624.994400</ele>
<time>2009-06-12T14:34:04Z</time>
</trkpt>
<trkpt lat="28.110442" lon="-17.306654">
<ele>623.071800</ele>
<time>2009-06-12T14:34:41Z</time>
</trkpt>
<trkpt lat="28.110565" lon="-17.306645">
<ele>621.629600</ele>
<time>2009-06-12T14:35:01Z</time>
</trkpt>
<trkpt lat="28.110684" lon="-17.306688">
<ele>618.264900</ele>
<time>2009-06-12T14:35:29Z</time>
</trkpt>
<trkpt lat="28.110683" lon="-17.306715">
<ele>616.823000</ele>
<time>2009-06-12T14:35:47Z</time>
</trkpt>
<trkpt lat="28.110655" lon="-17.306608">
<ele>615.381100</ele>
<time>2009-06-12T14:36:08Z</time>
</trkpt>
<trkpt lat="28.110683" lon="-17.306625">
<ele>613.458500</ele>
<time>2009-06-12T14:37:18Z</time>
</trkpt>
<trkpt lat="28.110702" lon="-17.306617">
<ele>610.093800</ele>
<time>2009-06-12T14:38:18Z</time>
</trkpt>
<trkpt lat="28.110751" lon="-17.306601">
<ele>608.651900</ele>
<time>2009-06-12T14:38:43Z</time>
</trkpt>
<trkpt lat="28.110689" lon="-17.306513">
<ele>605.768100</ele>
<time>2009-06-12T14:39:37Z</time>
</trkpt>
<trkpt lat="28.110692" lon="-17.306470">
<ele>603.845200</ele>
<time>2009-06-12T14:40:13Z</time>
</trkpt>
<trkpt lat="28.110717" lon="-17.306483">
<ele>601.441900</ele>
<time>2009-06-12T14:41:05Z</time>
</trkpt>
<trkpt lat="28.110654" lon="-17.306352">
<ele>599.519300</ele>
<time>2009-06-12T14:41:27Z</time>
</trkpt>
<trkpt lat="28.110779" lon="-17.306222">
<ele>597.596700</ele>
<time>2009-06-12T14:41:52Z</time>
</trkpt>
<trkpt lat="28.110734" lon="-17.306275">
<ele>596.154800</ele>
<time>2009-06-12T14:42:26Z</time>
</trkpt>
<trkpt lat="28.110629" lon="-17.306297">
<ele>595.674100</ele>
<time>2009-06-12T14:43:11Z</time>
</trkpt>
<trkpt lat="28.110572" lon="-17.306339">
<ele>596.154800</ele>
<time>2009-06-12T14:43:29Z</time>
</trkpt>
<trkpt lat="28.110615" lon="-17.306347">
<ele>594.232200</ele>
<time>2009-06-12T14:44:47Z</time>
</trkpt>
<trkpt lat="28.110708" lon="-17.306391">
<ele>592.790300</ele>
<time>2009-06-12T14:45:34Z</time>
</trkpt>
<trkpt lat="28.110737" lon="-17.306399">
<ele>592.790300</ele>
<time>2009-06-12T14:46:41Z</time>
</trkpt>
<trkpt lat="28.110710" lon="-17.306447">
<ele>593.751500</ele>
<time>2009-06-12T14:47:43Z</time>
</trkpt>
<trkpt lat="28.110653" lon="-17.306287">
<ele>595.193400</ele>
<time>2009-06-12T14:48:16Z</time>
</trkpt>
<trkpt lat="28.110670" lon="-17.306274">
<ele>596.154800</ele>
<time>2009-06-12T14:48:44Z</time>
</trkpt>
<trkpt lat="28.110693" lon="-17.306281">
<ele>592.790300</ele>
<time>2009-06-12T14:49:21Z</time>
</trkpt>
<trkpt lat="28.110716" lon="-17.306296">
<ele>592.790300</ele>
<time>2009-06-12T14:50:11Z</time>
</trkpt>
<trkpt lat="28.110789" lon="-17.306363">
<ele>589.906300</ele>
<time>2009-06-12T14:52:20Z</time>
</trkpt>
<trkpt lat="28.110790" lon="-17.306357">
<ele>589.906300</ele>
<time>2009-06-12T14:52:50Z</time>
</trkpt>
<trkpt lat="28.110775" lon="-17.306360">
<ele>588.945100</ele>
<time>2009-06-12T14:54:06Z</time>
</trkpt>
<trkpt lat="28.110779" lon="-17.306404">
<ele>587.022000</ele>
<time>2009-06-12T14:55:27Z</time>
</trkpt>
<trkpt lat="28.110814" lon="-17.306385">
<ele>585.580100</ele>
<time>2009-06-12T14:56:09Z</time>
</trkpt>
<trkpt lat="28.110844" lon="-17.306362">
<ele>583.657500</ele>
<time>2009-06-12T14:56:35Z</time>
</trkpt>
<trkpt lat="28.110907" lon="-17.306426">
<ele>580.773700</ele>
<time>2009-06-12T14:57:57Z</time>
</trkpt>
<trkpt lat="28.110966" lon="-17.306419">
<ele>579.331500</ele>
<time>2009-06-12T14:58:27Z</time>
</trkpt>
<trkpt lat="28.110988" lon="-17.306464">
<ele>577.409200</ele>
<time>2009-06-12T14:59:21Z</time>
</trkpt>
<trkpt lat="28.111000" lon="-17.306491">
<ele>574.525100</ele>
<time>2009-06-12T15:01:31Z</time>
</trkpt>
<trkpt lat="28.111096" lon="-17.306523">
<ele>574.525100</ele>
<time>2009-06-12T15:02:10Z</time>
</trkpt>
<trkpt lat="28.111075" lon="-17.306491">
<ele>574.525100</ele>
<time>2009-06-12T15:02:48Z</time>
</trkpt>
<trkpt lat="28.111209" lon="-17.306537">
<ele>572.602500</ele>
<time>2009-06-12T15:03:17Z</time>
</trkpt>
<trkpt lat="28.111217" lon="-17.306555">
<ele>571.160400</ele>
<time>2009-06-12T15:03:45Z</time>
</trkpt>
<trkpt lat="28.111238" lon="-17.306569">
<ele>567.795700</ele>
<time>2009-06-12T15:04:40Z</time>
</trkpt>
<trkpt lat="28.111275" lon="-17.306626">
<ele>564.911900</ele>
<time>2009-06-12T15:05:10Z</time>
</trkpt>
<trkpt lat="28.111298" lon="-17.306601">
<ele>565.392600</ele>
<time>2009-06-12T15:05:53Z</time>
</trkpt>
<trkpt lat="28.111267" lon="-17.306637">
<ele>565.392600</ele>
<time>2009-06-12T15:06:59Z</time>
</trkpt>
<trkpt lat="28.111268" lon="-17.306595">
<ele>565.392600</ele>
<time>2009-06-12T15:11:11Z</time>
</trkpt>
<trkpt lat="28.111263" lon="-17.306586">
<ele>565.392600</ele>
<time>2009-06-12T15:12:18Z</time>
</trkpt>
<trkpt lat="28.111262" lon="-17.306582">
<ele>563.950400</ele>
<time>2009-06-12T15:12:21Z</time>
</trkpt>
<trkpt lat="28.111246" lon="-17.306583">
<ele>560.585900</ele>
<time>2009-06-12T15:12:48Z</time>
</trkpt>
<trkpt lat="28.111245" lon="-17.306583">
<ele>560.105200</ele>
<time>2009-06-12T15:12:49Z</time>
</trkpt>
<trkpt lat="28.111244" lon="-17.306583">
<ele>558.663300</ele>
<time>2009-06-12T15:12:53Z</time>
</trkpt>
<trkpt lat="28.111239" lon="-17.306584">
<ele>556.260000</ele>
<time>2009-06-12T15:13:00Z</time>
</trkpt>
<trkpt lat="28.111232" lon="-17.306591">
<ele>552.895300</ele>
<time>2009-06-12T15:13:11Z</time>
</trkpt>
<trkpt lat="28.111233" lon="-17.306641">
<ele>559.144000</ele>
<time>2009-06-12T15:13:38Z</time>
</trkpt>
<trkpt lat="28.111240" lon="-17.306630">
<ele>564.431200</ele>
<time>2009-06-12T15:13:39Z</time>
</trkpt>
<trkpt lat="28.111246" lon="-17.306621">
<ele>564.431200</ele>
<time>2009-06-12T15:13:40Z</time>
</trkpt>
<trkpt lat="28.111298" lon="-17.306629">
<ele>561.066700</ele>
<time>2009-06-12T15:18:43Z</time>
</trkpt>
<trkpt lat="28.111382" lon="-17.306660">
<ele>558.182900</ele>
<time>2009-06-12T15:19:38Z</time>
</trkpt>
<trkpt lat="28.111380" lon="-17.306702">
<ele>555.298600</ele>
<time>2009-06-12T15:20:02Z</time>
</trkpt>
<trkpt lat="28.111425" lon="-17.306745">
<ele>551.934100</ele>
<time>2009-06-12T15:20:52Z</time>
</trkpt>
<trkpt lat="28.111394" lon="-17.306796">
<ele>550.492200</ele>
<time>2009-06-12T15:21:22Z</time>
</trkpt>
<trkpt lat="28.111450" lon="-17.306801">
<ele>547.608200</ele>
<time>2009-06-12T15:21:47Z</time>
</trkpt>
<trkpt lat="28.111458" lon="-17.306842">
<ele>546.166300</ele>
<time>2009-06-12T15:22:03Z</time>
</trkpt>
<trkpt lat="28.111467" lon="-17.306862">
<ele>544.243700</ele>
<time>2009-06-12T15:22:32Z</time>
</trkpt>
<trkpt lat="28.111474" lon="-17.306857">
<ele>541.359500</ele>
<time>2009-06-12T15:23:06Z</time>
</trkpt>
<trkpt lat="28.111599" lon="-17.306932">
<ele>537.995000</ele>
<time>2009-06-12T15:23:42Z</time>
</trkpt>
<trkpt lat="28.111625" lon="-17.306962">
<ele>537.033700</ele>
<time>2009-06-12T15:24:11Z</time>
</trkpt>
<trkpt lat="28.111674" lon="-17.306965">
<ele>533.668900</ele>
<time>2009-06-12T15:24:53Z</time>
</trkpt>
<trkpt lat="28.111676" lon="-17.306959">
<ele>530.785200</ele>
<time>2009-06-12T15:25:29Z</time>
</trkpt>
<trkpt lat="28.111774" lon="-17.306967">
<ele>528.381800</ele>
<time>2009-06-12T15:25:48Z</time>
</trkpt>
<trkpt lat="28.111824" lon="-17.307000">
<ele>526.459100</ele>
<time>2009-06-12T15:26:05Z</time>
</trkpt>
<trkpt lat="28.111870" lon="-17.307062">
<ele>525.017200</ele>
<time>2009-06-12T15:26:21Z</time>
</trkpt>
<trkpt lat="28.111848" lon="-17.306944">
<ele>525.017200</ele>
<time>2009-06-12T15:30:00Z</time>
</trkpt>
<trkpt lat="28.111829" lon="-17.306976">
<ele>526.459100</ele>
<time>2009-06-12T15:36:27Z</time>
</trkpt>
<trkpt lat="28.111832" lon="-17.306949">
<ele>525.497800</ele>
<time>2009-06-12T15:40:49Z</time>
</trkpt>
<trkpt lat="28.111876" lon="-17.306981">
<ele>524.536500</ele>
<time>2009-06-12T15:41:32Z</time>
</trkpt>
<trkpt lat="28.111904" lon="-17.307034">
<ele>522.613900</ele>
<time>2009-06-12T15:42:26Z</time>
</trkpt>
<trkpt lat="28.111929" lon="-17.306955">
<ele>519.249300</ele>
<time>2009-06-12T15:44:23Z</time>
</trkpt>
<trkpt lat="28.111969" lon="-17.306850">
<ele>515.884600</ele>
<time>2009-06-12T15:46:17Z</time>
</trkpt>
<trkpt lat="28.112010" lon="-17.306924">
<ele>514.442600</ele>
<time>2009-06-12T15:48:48Z</time>
</trkpt>
<trkpt lat="28.112037" lon="-17.306970">
<ele>513.000700</ele>
<time>2009-06-12T15:49:24Z</time>
</trkpt>
<trkpt lat="28.112027" lon="-17.306896">
<ele>511.078000</ele>
<time>2009-06-12T15:51:06Z</time>
</trkpt>
<trkpt lat="28.112100" lon="-17.306978">
<ele>507.713500</ele>
<time>2009-06-12T15:52:59Z</time>
</trkpt>
<trkpt lat="28.112150" lon="-17.307043">
<ele>506.752100</ele>
<time>2009-06-12T15:54:10Z</time>
</trkpt>
<trkpt lat="28.112196" lon="-17.307098">
<ele>503.868200</ele>
<time>2009-06-12T15:55:17Z</time>
</trkpt>
<trkpt lat="28.112189" lon="-17.307089">
<ele>500.984100</ele>
<time>2009-06-12T15:56:08Z</time>
</trkpt>
<trkpt lat="28.112217" lon="-17.307077">
<ele>499.061500</ele>
<time>2009-06-12T15:56:51Z</time>
</trkpt>
<trkpt lat="28.112211" lon="-17.307079">
<ele>497.619600</ele>
<time>2009-06-12T15:57:27Z</time>
</trkpt>
<trkpt lat="28.112223" lon="-17.307095">
<ele>498.100300</ele>
<time>2009-06-12T15:57:46Z</time>
</trkpt>
<trkpt lat="28.112225" lon="-17.307097">
<ele>494.735600</ele>
<time>2009-06-12T15:57:48Z</time>
</trkpt>
<trkpt lat="28.112226" lon="-17.307098">
<ele>499.542200</ele>
<time>2009-06-12T15:57:49Z</time>
</trkpt>
<trkpt lat="28.112227" lon="-17.307099">
<ele>499.061500</ele>
<time>2009-06-12T15:57:50Z</time>
</trkpt>
<trkpt lat="28.112229" lon="-17.307100">
<ele>495.696900</ele>
<time>2009-06-12T15:57:51Z</time>
</trkpt>
<trkpt lat="28.112230" lon="-17.307101">
<ele>497.138900</ele>
<time>2009-06-12T15:57:52Z</time>
</trkpt>
<trkpt lat="28.112252" lon="-17.307103">
<ele>495.696900</ele>
<time>2009-06-12T15:59:37Z</time>
</trkpt>
<trkpt lat="28.112295" lon="-17.307109">
<ele>494.255000</ele>
<time>2009-06-12T16:00:27Z</time>
</trkpt>
<trkpt lat="28.112327" lon="-17.307124">
<ele>490.890400</ele>
<time>2009-06-12T16:01:11Z</time>
</trkpt>
<trkpt lat="28.112415" lon="-17.307150">
<ele>488.006500</ele>
<time>2009-06-12T16:01:58Z</time>
</trkpt>
<trkpt lat="28.112451" lon="-17.307164">
<ele>484.641800</ele>
<time>2009-06-12T16:03:05Z</time>
</trkpt>
<trkpt lat="28.112450" lon="-17.307114">
<ele>481.277200</ele>
<time>2009-06-12T16:04:26Z</time>
</trkpt>
<trkpt lat="28.112488" lon="-17.307154">
<ele>478.393200</ele>
<time>2009-06-12T16:05:50Z</time>
</trkpt>
<trkpt lat="28.112565" lon="-17.307164">
<ele>475.509300</ele>
<time>2009-06-12T16:06:27Z</time>
</trkpt>
<trkpt lat="28.112665" lon="-17.307160">
<ele>473.106100</ele>
<time>2009-06-12T16:07:40Z</time>
</trkpt>
<trkpt lat="28.112621" lon="-17.307169">
<ele>469.741300</ele>
<time>2009-06-12T16:09:13Z</time>
</trkpt>
<trkpt lat="28.112738" lon="-17.307142">
<ele>467.338100</ele>
<time>2009-06-12T16:09:49Z</time>
</trkpt>
<trkpt lat="28.112779" lon="-17.307188">
<ele>463.973400</ele>
<time>2009-06-12T16:10:33Z</time>
</trkpt>
<trkpt lat="28.112848" lon="-17.307208">
<ele>461.089500</ele>
<time>2009-06-12T16:11:13Z</time>
</trkpt>
<trkpt lat="28.112870" lon="-17.307221">
<ele>458.205600</ele>
<time>2009-06-12T16:12:08Z</time>
</trkpt>
<trkpt lat="28.112987" lon="-17.307256">
<ele>455.321500</ele>
<time>2009-06-12T16:13:08Z</time>
</trkpt>
<trkpt lat="28.113040" lon="-17.307267">
<ele>452.918200</ele>
<time>2009-06-12T16:13:42Z</time>
</trkpt>
<trkpt lat="28.113167" lon="-17.307376">
<ele>450.034400</ele>
<time>2009-06-12T16:14:14Z</time>
</trkpt>
<trkpt lat="28.113184" lon="-17.307365">
<ele>448.111800</ele>
<time>2009-06-12T16:14:42Z</time>
</trkpt>
<trkpt lat="28.113203" lon="-17.307368">
<ele>444.747100</ele>
<time>2009-06-12T16:15:25Z</time>
</trkpt>
<trkpt lat="28.113258" lon="-17.307410">
<ele>441.863200</ele>
<time>2009-06-12T16:16:09Z</time>
</trkpt>
<trkpt lat="28.113360" lon="-17.307390">
<ele>438.979100</ele>
<time>2009-06-12T16:16:37Z</time>
</trkpt>
<trkpt lat="28.113476" lon="-17.307431">
<ele>435.614500</ele>
<time>2009-06-12T16:17:43Z</time>
</trkpt>
<trkpt lat="28.113580" lon="-17.307449">
<ele>433.211300</ele>
<time>2009-06-12T16:18:19Z</time>
</trkpt>
<trkpt lat="28.113563" lon="-17.307356">
<ele>430.327300</ele>
<time>2009-06-12T16:19:36Z</time>
</trkpt>
<trkpt lat="28.113678" lon="-17.307476">
<ele>428.885400</ele>
<time>2009-06-12T16:20:01Z</time>
</trkpt>
<trkpt lat="28.113727" lon="-17.307509">
<ele>425.520800</ele>
<time>2009-06-12T16:20:41Z</time>
</trkpt>
<trkpt lat="28.113778" lon="-17.307547">
<ele>423.117400</ele>
<time>2009-06-12T16:21:11Z</time>
</trkpt>
<trkpt lat="28.113947" lon="-17.307629">
<ele>420.233400</ele>
<time>2009-06-12T16:21:45Z</time>
</trkpt>
<trkpt lat="28.113982" lon="-17.307628">
<ele>417.349600</ele>
<time>2009-06-12T16:22:07Z</time>
</trkpt>
<trkpt lat="28.114044" lon="-17.307598">
<ele>415.426900</ele>
<time>2009-06-12T16:22:55Z</time>
</trkpt>
<trkpt lat="28.114077" lon="-17.307606">
<ele>412.542800</ele>
<time>2009-06-12T16:23:26Z</time>
</trkpt>
<trkpt lat="28.114176" lon="-17.307613">
<ele>410.139600</ele>
<time>2009-06-12T16:23:49Z</time>
</trkpt>
<trkpt lat="28.114328" lon="-17.307726">
<ele>407.255600</ele>
<time>2009-06-12T16:24:20Z</time>
</trkpt>
<trkpt lat="28.114376" lon="-17.307735">
<ele>404.371700</ele>
<time>2009-06-12T16:24:56Z</time>
</trkpt>
<trkpt lat="28.114411" lon="-17.307544">
<ele>402.449100</ele>
<time>2009-06-12T16:25:45Z</time>
</trkpt>
<trkpt lat="28.114560" lon="-17.307470">
<ele>401.968500</ele>
<time>2009-06-12T16:25:59Z</time>
</trkpt>
<trkpt lat="28.114566" lon="-17.307397">
<ele>401.487800</ele>
<time>2009-06-12T16:26:16Z</time>
</trkpt>
<trkpt lat="28.114692" lon="-17.307492">
<ele>401.968500</ele>
<time>2009-06-12T16:26:32Z</time>
</trkpt>
<trkpt lat="28.114818" lon="-17.307629">
<ele>401.487800</ele>
<time>2009-06-12T16:26:49Z</time>
</trkpt>
<trkpt lat="28.114848" lon="-17.307642">
<ele>401.487800</ele>
<time>2009-06-12T16:27:14Z</time>
</trkpt>
<trkpt lat="28.114773" lon="-17.307643">
<ele>399.565100</ele>
<time>2009-06-12T16:32:53Z</time>
</trkpt>
<trkpt lat="28.114725" lon="-17.307647">
<ele>397.642500</ele>
<time>2009-06-12T16:33:00Z</time>
</trkpt>
<trkpt lat="28.114630" lon="-17.307743">
<ele>395.719800</ele>
<time>2009-06-12T16:33:20Z</time>
</trkpt>
<trkpt lat="28.114603" lon="-17.307975">
<ele>394.278000</ele>
<time>2009-06-12T16:33:41Z</time>
</trkpt>
<trkpt lat="28.114584" lon="-17.308002">
<ele>394.278000</ele>
<time>2009-06-12T16:33:45Z</time>
</trkpt>
<trkpt lat="28.114575" lon="-17.308040">
<ele>394.278000</ele>
<time>2009-06-12T16:33:49Z</time>
</trkpt>
<trkpt lat="28.114572" lon="-17.308065">
<ele>393.797200</ele>
<time>2009-06-12T16:33:51Z</time>
</trkpt>
<trkpt lat="28.114548" lon="-17.308116">
<ele>393.797200</ele>
<time>2009-06-12T16:33:56Z</time>
</trkpt>
<trkpt lat="28.114534" lon="-17.308167">
<ele>394.278000</ele>
<time>2009-06-12T16:34:06Z</time>
</trkpt>
<trkpt lat="28.114489" lon="-17.308235">
<ele>393.797200</ele>
<time>2009-06-12T16:34:13Z</time>
</trkpt>
<trkpt lat="28.114461" lon="-17.308273">
<ele>393.797200</ele>
<time>2009-06-12T16:34:18Z</time>
</trkpt>
<trkpt lat="28.114360" lon="-17.308353">
<ele>393.316500</ele>
<time>2009-06-12T16:34:34Z</time>
</trkpt>
<trkpt lat="28.114296" lon="-17.308457">
<ele>392.835900</ele>
<time>2009-06-12T16:34:52Z</time>
</trkpt>
<trkpt lat="28.114289" lon="-17.308529">
<ele>392.355300</ele>
<time>2009-06-12T16:34:58Z</time>
</trkpt>
<trkpt lat="28.114277" lon="-17.308550">
<ele>392.355300</ele>
<time>2009-06-12T16:35:00Z</time>
</trkpt>
<trkpt lat="28.114266" lon="-17.308574">
<ele>391.874500</ele>
<time>2009-06-12T16:35:02Z</time>
</trkpt>
<trkpt lat="28.114224" lon="-17.308629">
<ele>391.874500</ele>
<time>2009-06-12T16:35:09Z</time>
</trkpt>
<trkpt lat="28.114200" lon="-17.308763">
<ele>391.393800</ele>
<time>2009-06-12T16:35:22Z</time>
</trkpt>
<trkpt lat="28.114181" lon="-17.308799">
<ele>390.913200</ele>
<time>2009-06-12T16:35:26Z</time>
</trkpt>
<trkpt lat="28.114169" lon="-17.308918">
<ele>388.990600</ele>
<time>2009-06-12T16:35:39Z</time>
</trkpt>
<trkpt lat="28.114156" lon="-17.308962">
<ele>388.990600</ele>
<time>2009-06-12T16:35:44Z</time>
</trkpt>
<trkpt lat="28.114133" lon="-17.308989">
<ele>388.510000</ele>
<time>2009-06-12T16:35:48Z</time>
</trkpt>
<trkpt lat="28.114093" lon="-17.309077">
<ele>387.548600</ele>
<time>2009-06-12T16:36:00Z</time>
</trkpt>
<trkpt lat="28.114014" lon="-17.309124">
<ele>386.587400</ele>
<time>2009-06-12T16:36:14Z</time>
</trkpt>
<trkpt lat="28.113967" lon="-17.309234">
<ele>385.145400</ele>
<time>2009-06-12T16:36:30Z</time>
</trkpt>
<trkpt lat="28.113967" lon="-17.309371">
<ele>384.184100</ele>
<time>2009-06-12T16:36:44Z</time>
</trkpt>
<trkpt lat="28.113948" lon="-17.309413">
<ele>384.184100</ele>
<time>2009-06-12T16:37:40Z</time>
</trkpt>
<trkpt lat="28.113954" lon="-17.309398">
<ele>385.145400</ele>
<time>2009-06-12T16:44:27Z</time>
</trkpt>
<trkpt lat="28.113954" lon="-17.309398">
<ele>388.510000</ele>
<time>2009-06-12T16:45:12Z</time>
</trkpt>
<trkpt lat="28.113954" lon="-17.309398">
<ele>385.145400</ele>
<time>2009-06-12T16:45:15Z</time>
</trkpt>
<trkpt lat="28.113610" lon="-17.310952">
<ele>385.626000</ele>
<time>2009-06-12T16:45:16Z</time>
</trkpt>
<trkpt lat="28.114048" lon="-17.309403">
<ele>385.145400</ele>
<time>2009-06-12T16:46:16Z</time>
</trkpt>
<trkpt lat="28.114118" lon="-17.309370">
<ele>382.742100</ele>
<time>2009-06-12T16:46:33Z</time>
</trkpt>
<trkpt lat="28.114215" lon="-17.309349">
<ele>381.300000</ele>
<time>2009-06-12T16:46:41Z</time>
</trkpt>
<trkpt lat="28.114329" lon="-17.309297">
<ele>377.935400</ele>
<time>2009-06-12T16:46:52Z</time>
</trkpt>
<trkpt lat="28.114368" lon="-17.309288">
<ele>377.454800</ele>
<time>2009-06-12T16:46:56Z</time>
</trkpt>
<trkpt lat="28.114439" lon="-17.309243">
<ele>376.012800</ele>
<time>2009-06-12T16:47:00Z</time>
</trkpt>
<trkpt lat="28.114485" lon="-17.309197">
<ele>376.012800</ele>
<time>2009-06-12T16:47:05Z</time>
</trkpt>
<trkpt lat="28.114543" lon="-17.309197">
<ele>374.570800</ele>
<time>2009-06-12T16:47:08Z</time>
</trkpt>
<trkpt lat="28.114565" lon="-17.309212">
<ele>374.090100</ele>
<time>2009-06-12T16:47:10Z</time>
</trkpt>
<trkpt lat="28.114610" lon="-17.309349">
<ele>370.725600</ele>
<time>2009-06-12T16:47:19Z</time>
</trkpt>
<trkpt lat="28.114607" lon="-17.309369">
<ele>370.725600</ele>
<time>2009-06-12T16:47:20Z</time>
</trkpt>
<trkpt lat="28.114581" lon="-17.309443">
<ele>370.244900</ele>
<time>2009-06-12T16:47:25Z</time>
</trkpt>
<trkpt lat="28.114573" lon="-17.309588">
<ele>367.361000</ele>
<time>2009-06-12T16:47:36Z</time>
</trkpt>
<trkpt lat="28.114552" lon="-17.309765">
<ele>363.996300</ele>
<time>2009-06-12T16:47:47Z</time>
</trkpt>
<trkpt lat="28.114514" lon="-17.309837">
<ele>362.554300</ele>
<time>2009-06-12T16:47:52Z</time>
</trkpt>
<trkpt lat="28.114377" lon="-17.310010">
<ele>360.151100</ele>
<time>2009-06-12T16:48:05Z</time>
</trkpt>
<trkpt lat="28.114367" lon="-17.310032">
<ele>359.189700</ele>
<time>2009-06-12T16:48:07Z</time>
</trkpt>
<trkpt lat="28.114281" lon="-17.310219">
<ele>357.267100</ele>
<time>2009-06-12T16:48:20Z</time>
</trkpt>
<trkpt lat="28.114214" lon="-17.310299">
<ele>355.825200</ele>
<time>2009-06-12T16:48:27Z</time>
</trkpt>
<trkpt lat="28.114186" lon="-17.310318">
<ele>354.863800</ele>
<time>2009-06-12T16:48:29Z</time>
</trkpt>
<trkpt lat="28.114089" lon="-17.310439">
<ele>350.537800</ele>
<time>2009-06-12T16:48:40Z</time>
</trkpt>
<trkpt lat="28.113961" lon="-17.310558">
<ele>351.018400</ele>
<time>2009-06-12T16:48:53Z</time>
</trkpt>
<trkpt lat="28.113907" lon="-17.310611">
<ele>350.537800</ele>
<time>2009-06-12T16:48:58Z</time>
</trkpt>
<trkpt lat="28.113811" lon="-17.310775">
<ele>349.576500</ele>
<time>2009-06-12T16:49:10Z</time>
</trkpt>
<trkpt lat="28.113780" lon="-17.310788">
<ele>349.576500</ele>
<time>2009-06-12T16:49:13Z</time>
</trkpt>
<trkpt lat="28.113635" lon="-17.310859">
<ele>348.134600</ele>
<time>2009-06-12T16:49:26Z</time>
</trkpt>
<trkpt lat="28.113653" lon="-17.310850">
<ele>345.250600</ele>
<time>2009-06-12T16:49:32Z</time>
</trkpt>
<trkpt lat="28.113671" lon="-17.310884">
<ele>344.289400</ele>
<time>2009-06-12T16:49:36Z</time>
</trkpt>
<trkpt lat="28.113676" lon="-17.310915">
<ele>344.770000</ele>
<time>2009-06-12T16:49:51Z</time>
</trkpt>
<trkpt lat="28.113713" lon="-17.310889">
<ele>344.289400</ele>
<time>2009-06-12T16:49:58Z</time>
</trkpt>
<trkpt lat="28.113644" lon="-17.310912">
<ele>347.653900</ele>
<time>2009-06-12T16:50:08Z</time>
</trkpt>
<trkpt lat="28.113605" lon="-17.310867">
<ele>348.134600</ele>
<time>2009-06-12T16:50:13Z</time>
</trkpt>
<trkpt lat="28.113499" lon="-17.310822">
<ele>348.134600</ele>
<time>2009-06-12T16:50:21Z</time>
</trkpt>
<trkpt lat="28.113402" lon="-17.310802">
<ele>345.731300</ele>
<time>2009-06-12T16:50:33Z</time>
</trkpt>
<trkpt lat="28.113472" lon="-17.310818">
<ele>342.366700</ele>
<time>2009-06-12T16:50:44Z</time>
</trkpt>
<trkpt lat="28.113482" lon="-17.310824">
<ele>342.366700</ele>
<time>2009-06-12T16:50:45Z</time>
</trkpt>
<trkpt lat="28.113564" lon="-17.310913">
<ele>341.405300</ele>
<time>2009-06-12T16:50:48Z</time>
</trkpt>
<trkpt lat="28.113645" lon="-17.310983">
<ele>338.040800</ele>
<time>2009-06-12T16:50:57Z</time>
</trkpt>
<trkpt lat="28.113716" lon="-17.311046">
<ele>336.598900</ele>
<time>2009-06-12T16:51:05Z</time>
</trkpt>
<trkpt lat="28.113753" lon="-17.311099">
<ele>335.156700</ele>
<time>2009-06-12T16:51:11Z</time>
</trkpt>
<trkpt lat="28.113831" lon="-17.311127">
<ele>333.714700</ele>
<time>2009-06-12T16:51:22Z</time>
</trkpt>
<trkpt lat="28.113857" lon="-17.311146">
<ele>332.272800</ele>
<time>2009-06-12T16:51:33Z</time>
</trkpt>
<trkpt lat="28.113960" lon="-17.311299">
<ele>329.869500</ele>
<time>2009-06-12T16:51:53Z</time>
</trkpt>
<trkpt lat="28.114007" lon="-17.311403">
<ele>327.466200</ele>
<time>2009-06-12T16:52:11Z</time>
</trkpt>
<trkpt lat="28.114044" lon="-17.311492">
<ele>324.101600</ele>
<time>2009-06-12T16:52:35Z</time>
</trkpt>
<trkpt lat="28.114069" lon="-17.311608">
<ele>323.140400</ele>
<time>2009-06-12T16:52:44Z</time>
</trkpt>
<trkpt lat="28.114078" lon="-17.311696">
<ele>318.333600</ele>
<time>2009-06-12T16:52:56Z</time>
</trkpt>
<trkpt lat="28.114086" lon="-17.311695">
<ele>322.179000</ele>
<time>2009-06-12T16:52:58Z</time>
</trkpt>
<trkpt lat="28.114114" lon="-17.311721">
<ele>325.063000</ele>
<time>2009-06-12T16:53:11Z</time>
</trkpt>
<trkpt lat="28.114173" lon="-17.311784">
<ele>321.698400</ele>
<time>2009-06-12T16:53:21Z</time>
</trkpt>
<trkpt lat="28.114221" lon="-17.311946">
<ele>319.295000</ele>
<time>2009-06-12T16:53:40Z</time>
</trkpt>
<trkpt lat="28.114426" lon="-17.312156">
<ele>318.333600</ele>
<time>2009-06-12T16:54:17Z</time>
</trkpt>
<trkpt lat="28.114517" lon="-17.312212">
<ele>317.853000</ele>
<time>2009-06-12T16:54:37Z</time>
</trkpt>
<trkpt lat="28.114496" lon="-17.312312">
<ele>318.814300</ele>
<time>2009-06-12T16:54:44Z</time>
</trkpt>
<trkpt lat="28.114429" lon="-17.312376">
<ele>319.295000</ele>
<time>2009-06-12T16:54:57Z</time>
</trkpt>
<trkpt lat="28.114337" lon="-17.312495">
<ele>318.333600</ele>
<time>2009-06-12T16:55:06Z</time>
</trkpt>
<trkpt lat="28.114285" lon="-17.312549">
<ele>319.295000</ele>
<time>2009-06-12T16:55:24Z</time>
</trkpt>
<trkpt lat="28.114379" lon="-17.312422">
<ele>318.814300</ele>
<time>2009-06-12T16:55:39Z</time>
</trkpt>
<trkpt lat="28.114440" lon="-17.312402">
<ele>319.295000</ele>
<time>2009-06-12T16:55:47Z</time>
</trkpt>
<trkpt lat="28.114470" lon="-17.312433">
<ele>322.659700</ele>
<time>2009-06-12T16:56:00Z</time>
</trkpt>
<trkpt lat="28.114461" lon="-17.312447">
<ele>326.024200</ele>
<time>2009-06-12T16:56:31Z</time>
</trkpt>
<trkpt lat="28.114584" lon="-17.312496">
<ele>328.908300</ele>
<time>2009-06-12T16:56:48Z</time>
</trkpt>
<trkpt lat="28.114608" lon="-17.312580">
<ele>330.350200</ele>
<time>2009-06-12T16:57:02Z</time>
</trkpt>
<trkpt lat="28.114510" lon="-17.312632">
<ele>334.195400</ele>
<time>2009-06-12T16:57:15Z</time>
</trkpt>
<trkpt lat="28.114466" lon="-17.312668">
<ele>335.156700</ele>
<time>2009-06-12T16:57:20Z</time>
</trkpt>
<trkpt lat="28.114384" lon="-17.312747">
<ele>336.118200</ele>
<time>2009-06-12T16:57:31Z</time>
</trkpt>
<trkpt lat="28.114359" lon="-17.312877">
<ele>331.792100</ele>
<time>2009-06-12T16:57:39Z</time>
</trkpt>
<trkpt lat="28.114346" lon="-17.312885">
<ele>334.195400</ele>
<time>2009-06-12T16:57:40Z</time>
</trkpt>
<trkpt lat="28.114298" lon="-17.312937">
<ele>334.195400</ele>
<time>2009-06-12T16:57:45Z</time>
</trkpt>
<trkpt lat="28.114298" lon="-17.312961">
<ele>333.714700</ele>
<time>2009-06-12T16:57:47Z</time>
</trkpt>
<trkpt lat="28.114264" lon="-17.313038">
<ele>333.714700</ele>
<time>2009-06-12T16:57:53Z</time>
</trkpt>
<trkpt lat="28.114252" lon="-17.313098">
<ele>333.714700</ele>
<time>2009-06-12T16:57:57Z</time>
</trkpt>
<trkpt lat="28.114256" lon="-17.313181">
<ele>333.234100</ele>
<time>2009-06-12T16:58:02Z</time>
</trkpt>
<trkpt lat="28.114301" lon="-17.313281">
<ele>328.427600</ele>
<time>2009-06-12T16:58:07Z</time>
</trkpt>
<trkpt lat="28.114323" lon="-17.313295">
<ele>333.234100</ele>
<time>2009-06-12T16:58:08Z</time>
</trkpt>
<trkpt lat="28.114322" lon="-17.313515">
<ele>331.792100</ele>
<time>2009-06-12T16:58:22Z</time>
</trkpt>
<trkpt lat="28.114253" lon="-17.313613">
<ele>330.830900</ele>
<time>2009-06-12T16:58:30Z</time>
</trkpt>
<trkpt lat="28.114108" lon="-17.313710">
<ele>329.869500</ele>
<time>2009-06-12T16:58:41Z</time>
</trkpt>
<trkpt lat="28.114022" lon="-17.313760">
<ele>329.388900</ele>
<time>2009-06-12T16:58:46Z</time>
</trkpt>
<trkpt lat="28.113818" lon="-17.313904">
<ele>327.946800</ele>
<time>2009-06-12T16:59:00Z</time>
</trkpt>
<trkpt lat="28.113684" lon="-17.314025">
<ele>328.908300</ele>
<time>2009-06-12T16:59:11Z</time>
</trkpt>
<trkpt lat="28.113571" lon="-17.314216">
<ele>327.946800</ele>
<time>2009-06-12T16:59:25Z</time>
</trkpt>
<trkpt lat="28.113562" lon="-17.314252">
<ele>326.504900</ele>
<time>2009-06-12T16:59:27Z</time>
</trkpt>
<trkpt lat="28.113524" lon="-17.314312">
<ele>326.024200</ele>
<time>2009-06-12T16:59:31Z</time>
</trkpt>
<trkpt lat="28.113427" lon="-17.314449">
<ele>325.063000</ele>
<time>2009-06-12T16:59:41Z</time>
</trkpt>
<trkpt lat="28.113268" lon="-17.314583">
<ele>322.659700</ele>
<time>2009-06-12T16:59:53Z</time>
</trkpt>
<trkpt lat="28.113169" lon="-17.314821">
<ele>321.217800</ele>
<time>2009-06-12T17:00:08Z</time>
</trkpt>
<trkpt lat="28.113137" lon="-17.315029">
<ele>319.295000</ele>
<time>2009-06-12T17:00:21Z</time>
</trkpt>
<trkpt lat="28.113021" lon="-17.315226">
<ele>317.853000</ele>
<time>2009-06-12T17:00:33Z</time>
</trkpt>
<trkpt lat="28.112960" lon="-17.315275">
<ele>316.891700</ele>
<time>2009-06-12T17:00:37Z</time>
</trkpt>
<trkpt lat="28.112789" lon="-17.315315">
<ele>315.449800</ele>
<time>2009-06-12T17:00:49Z</time>
</trkpt>
<trkpt lat="28.112559" lon="-17.315394">
<ele>312.565800</ele>
<time>2009-06-12T17:01:04Z</time>
</trkpt>
<trkpt lat="28.112519" lon="-17.315413">
<ele>312.085200</ele>
<time>2009-06-12T17:01:07Z</time>
</trkpt>
<trkpt lat="28.112433" lon="-17.315541">
<ele>310.643100</ele>
<time>2009-06-12T17:01:16Z</time>
</trkpt>
<trkpt lat="28.112425" lon="-17.315583">
<ele>311.123800</ele>
<time>2009-06-12T17:01:18Z</time>
</trkpt>
<trkpt lat="28.112413" lon="-17.315665">
<ele>310.162500</ele>
<time>2009-06-12T17:01:22Z</time>
</trkpt>
<trkpt lat="28.112420" lon="-17.315880">
<ele>308.239900</ele>
<time>2009-06-12T17:01:36Z</time>
</trkpt>
<trkpt lat="28.112437" lon="-17.315940">
<ele>307.759300</ele>
<time>2009-06-12T17:01:40Z</time>
</trkpt>
<trkpt lat="28.112468" lon="-17.316171">
<ele>306.317300</ele>
<time>2009-06-12T17:01:52Z</time>
</trkpt>
<trkpt lat="28.112490" lon="-17.316247">
<ele>305.356000</ele>
<time>2009-06-12T17:01:57Z</time>
</trkpt>
<trkpt lat="28.112553" lon="-17.316500">
<ele>303.433200</ele>
<time>2009-06-12T17:02:11Z</time>
</trkpt>
<trkpt lat="28.112548" lon="-17.316719">
<ele>301.510600</ele>
<time>2009-06-12T17:02:24Z</time>
</trkpt>
<trkpt lat="28.112521" lon="-17.316810">
<ele>300.549300</ele>
<time>2009-06-12T17:02:30Z</time>
</trkpt>
<trkpt lat="28.112480" lon="-17.316877">
<ele>300.068700</ele>
<time>2009-06-12T17:02:36Z</time>
</trkpt>
<trkpt lat="28.112395" lon="-17.316932">
<ele>298.626700</ele>
<time>2009-06-12T17:02:44Z</time>
</trkpt>
<trkpt lat="28.112354" lon="-17.316994">
<ele>297.665400</ele>
<time>2009-06-12T17:02:49Z</time>
</trkpt>
<trkpt lat="28.112285" lon="-17.317065">
<ele>297.184700</ele>
<time>2009-06-12T17:02:55Z</time>
</trkpt>
<trkpt lat="28.112216" lon="-17.317140">
<ele>296.223500</ele>
<time>2009-06-12T17:03:01Z</time>
</trkpt>
<trkpt lat="28.112062" lon="-17.317294">
<ele>295.262000</ele>
<time>2009-06-12T17:03:12Z</time>
</trkpt>
<trkpt lat="28.111953" lon="-17.317550">
<ele>294.300800</ele>
<time>2009-06-12T17:03:29Z</time>
</trkpt>
<trkpt lat="28.111934" lon="-17.317663">
<ele>293.820100</ele>
<time>2009-06-12T17:03:35Z</time>
</trkpt>
<trkpt lat="28.111893" lon="-17.317798">
<ele>293.339400</ele>
<time>2009-06-12T17:03:42Z</time>
</trkpt>
<trkpt lat="28.111781" lon="-17.318009">
<ele>293.339400</ele>
<time>2009-06-12T17:03:56Z</time>
</trkpt>
<trkpt lat="28.111593" lon="-17.318253">
<ele>292.858800</ele>
<time>2009-06-12T17:04:14Z</time>
</trkpt>
<trkpt lat="28.111594" lon="-17.318452">
<ele>291.897500</ele>
<time>2009-06-12T17:04:26Z</time>
</trkpt>
<trkpt lat="28.111626" lon="-17.318688">
<ele>290.455600</ele>
<time>2009-06-12T17:04:38Z</time>
</trkpt>
<trkpt lat="28.111520" lon="-17.318963">
<ele>288.052200</ele>
<time>2009-06-12T17:04:51Z</time>
</trkpt>
<trkpt lat="28.111380" lon="-17.319153">
<ele>284.687600</ele>
<time>2009-06-12T17:05:02Z</time>
</trkpt>
<trkpt lat="28.111265" lon="-17.319402">
<ele>283.245600</ele>
<time>2009-06-12T17:05:14Z</time>
</trkpt>
<trkpt lat="28.111168" lon="-17.319646">
<ele>280.842400</ele>
<time>2009-06-12T17:05:26Z</time>
</trkpt>
<trkpt lat="28.111100" lon="-17.319863">
<ele>277.477700</ele>
<time>2009-06-12T17:05:35Z</time>
</trkpt>
<trkpt lat="28.110971" lon="-17.320115">
<ele>274.593800</ele>
<time>2009-06-12T17:05:48Z</time>
</trkpt>
<trkpt lat="28.110911" lon="-17.320183">
<ele>272.671100</ele>
<time>2009-06-12T17:05:52Z</time>
</trkpt>
<trkpt lat="28.110733" lon="-17.320248">
<ele>269.306500</ele>
<time>2009-06-12T17:06:01Z</time>
</trkpt>
<trkpt lat="28.110709" lon="-17.320257">
<ele>269.306500</ele>
<time>2009-06-12T17:06:02Z</time>
</trkpt>
<trkpt lat="28.110458" lon="-17.320423">
<ele>266.422500</ele>
<time>2009-06-12T17:06:16Z</time>
</trkpt>
<trkpt lat="28.110413" lon="-17.320456">
<ele>265.461300</ele>
<time>2009-06-12T17:06:19Z</time>
</trkpt>
<trkpt lat="28.110274" lon="-17.320612">
<ele>262.096600</ele>
<time>2009-06-12T17:06:28Z</time>
</trkpt>
<trkpt lat="28.110138" lon="-17.320858">
<ele>260.174000</ele>
<time>2009-06-12T17:06:41Z</time>
</trkpt>
<trkpt lat="28.110110" lon="-17.320945">
<ele>258.731900</ele>
<time>2009-06-12T17:06:45Z</time>
</trkpt>
<trkpt lat="28.110004" lon="-17.321203">
<ele>255.367300</ele>
<time>2009-06-12T17:06:57Z</time>
</trkpt>
<trkpt lat="28.109972" lon="-17.321263">
<ele>254.406000</ele>
<time>2009-06-12T17:07:00Z</time>
</trkpt>
<trkpt lat="28.109872" lon="-17.321500">
<ele>250.560800</ele>
<time>2009-06-12T17:07:11Z</time>
</trkpt>
<trkpt lat="28.109734" lon="-17.321754">
<ele>247.676800</ele>
<time>2009-06-12T17:07:23Z</time>
</trkpt>
<trkpt lat="28.109670" lon="-17.321861">
<ele>245.273400</ele>
<time>2009-06-12T17:07:29Z</time>
</trkpt>
<trkpt lat="28.109478" lon="-17.322115">
<ele>241.908900</ele>
<time>2009-06-12T17:07:42Z</time>
</trkpt>
<trkpt lat="28.109347" lon="-17.322281">
<ele>239.986200</ele>
<time>2009-06-12T17:07:54Z</time>
</trkpt>
<trkpt lat="28.109251" lon="-17.322404">
<ele>237.102300</ele>
<time>2009-06-12T17:08:03Z</time>
</trkpt>
<trkpt lat="28.109075" lon="-17.322616">
<ele>233.737700</ele>
<time>2009-06-12T17:08:19Z</time>
</trkpt>
<trkpt lat="28.108967" lon="-17.322773">
<ele>230.373000</ele>
<time>2009-06-12T17:08:30Z</time>
</trkpt>
<trkpt lat="28.108827" lon="-17.323003">
<ele>228.931200</ele>
<time>2009-06-12T17:08:44Z</time>
</trkpt>
<trkpt lat="28.108733" lon="-17.323179">
<ele>227.489100</ele>
<time>2009-06-12T17:08:55Z</time>
</trkpt>
<trkpt lat="28.108704" lon="-17.323277">
<ele>226.047100</ele>
<time>2009-06-12T17:09:00Z</time>
</trkpt>
<trkpt lat="28.108609" lon="-17.323481">
<ele>225.085900</ele>
<time>2009-06-12T17:09:12Z</time>
</trkpt>
<trkpt lat="28.108491" lon="-17.323714">
<ele>222.682500</ele>
<time>2009-06-12T17:09:27Z</time>
</trkpt>
<trkpt lat="28.108390" lon="-17.323926">
<ele>219.798600</ele>
<time>2009-06-12T17:09:41Z</time>
</trkpt>
<trkpt lat="28.108262" lon="-17.324146">
<ele>216.434000</ele>
<time>2009-06-12T17:09:55Z</time>
</trkpt>
<trkpt lat="28.108134" lon="-17.324392">
<ele>214.030600</ele>
<time>2009-06-12T17:10:09Z</time>
</trkpt>
<trkpt lat="28.108099" lon="-17.324617">
<ele>212.108000</ele>
<time>2009-06-12T17:10:22Z</time>
</trkpt>
<trkpt lat="28.108104" lon="-17.324663">
<ele>211.146700</ele>
<time>2009-06-12T17:10:25Z</time>
</trkpt>
<trkpt lat="28.108190" lon="-17.324948">
<ele>208.262800</ele>
<time>2009-06-12T17:10:41Z</time>
</trkpt>
<trkpt lat="28.108255" lon="-17.325135">
<ele>204.898100</ele>
<time>2009-06-12T17:10:52Z</time>
</trkpt>
<trkpt lat="28.108211" lon="-17.325328">
<ele>202.494900</ele>
<time>2009-06-12T17:11:04Z</time>
</trkpt>
<trkpt lat="28.108106" lon="-17.325459">
<ele>200.572300</ele>
<time>2009-06-12T17:11:15Z</time>
</trkpt>
<trkpt lat="28.107974" lon="-17.325618">
<ele>197.207500</ele>
<time>2009-06-12T17:11:27Z</time>
</trkpt>
<trkpt lat="28.107790" lon="-17.325781">
<ele>193.843000</ele>
<time>2009-06-12T17:11:42Z</time>
</trkpt>
<trkpt lat="28.107781" lon="-17.325772">
<ele>193.362300</ele>
<time>2009-06-12T17:11:43Z</time>
</trkpt>
<trkpt lat="28.107641" lon="-17.325802">
<ele>190.959000</ele>
<time>2009-06-12T17:11:54Z</time>
</trkpt>
<trkpt lat="28.107590" lon="-17.325816">
<ele>190.478400</ele>
<time>2009-06-12T17:11:57Z</time>
</trkpt>
<trkpt lat="28.107475" lon="-17.325803">
<ele>188.555800</ele>
<time>2009-06-12T17:12:05Z</time>
</trkpt>
<trkpt lat="28.107398" lon="-17.325745">
<ele>187.113800</ele>
<time>2009-06-12T17:12:18Z</time>
</trkpt>
<trkpt lat="28.107276" lon="-17.325702">
<ele>186.633200</ele>
<time>2009-06-12T17:12:30Z</time>
</trkpt>
<trkpt lat="28.107088" lon="-17.325665">
<ele>184.710600</ele>
<time>2009-06-12T17:12:44Z</time>
</trkpt>
<trkpt lat="28.106927" lon="-17.325651">
<ele>183.749000</ele>
<time>2009-06-12T17:13:00Z</time>
</trkpt>
</trkseg>
</trk>
</gpx>
